<?xml version="1.0" encoding="UTF-8" standalone="no" ?>
<gpx xmlns="http://www.topografix.com/GPX/1/1" xmlns:xsi="http://www.w3.org/2001/XMLSchema-instance" xsi:schemaLocation="http://www.topografix.com/GPX/1/1 http://www.topografix.com/GPX/1/1/gpx.xsd" version="1.1" creator="VisuGPX - https://www.visugpx.com">
  <metadata>
    <name>83 - L - le Muy</name>
    <desc><![CDATA[83 - L - le Muy - la colle du Rouet - Palayson
2024-10-28]]></desc>
  </metadata>
  <trk>
    <name><![CDATA[Le Muy la colle du Rouet 2024-10-28-01]]></name>
    <trkseg>
      <trkpt lat="43.50758" lon="6.59973">
        <ele>71.9</ele>
        <time>2024-10-28T08:18:18Z</time>
      </trkpt>
      <trkpt lat="43.50758" lon="6.59972">
        <ele>70</ele>
        <time>2024-10-28T08:18:17Z</time>
      </trkpt>
      <trkpt lat="43.50749" lon="6.59973">
        <ele>74.7</ele>
        <time>2024-10-28T08:24:53Z</time>
      </trkpt>
      <trkpt lat="43.5074" lon="6.59977">
        <ele>74.8</ele>
        <time>2024-10-28T08:25:26Z</time>
      </trkpt>
      <trkpt lat="43.5073" lon="6.59977">
        <ele>74.7</ele>
        <time>2024-10-28T08:25:36Z</time>
      </trkpt>
      <trkpt lat="43.50721" lon="6.59976">
        <ele>74.6</ele>
        <time>2024-10-28T08:25:55Z</time>
      </trkpt>
      <trkpt lat="43.50712" lon="6.59978">
        <ele>74.5</ele>
        <time>2024-10-28T08:26:03Z</time>
      </trkpt>
      <trkpt lat="43.50704" lon="6.59971">
        <ele>74.6</ele>
        <time>2024-10-28T08:26:16Z</time>
      </trkpt>
      <trkpt lat="43.50695" lon="6.59976">
        <ele>74.9</ele>
        <time>2024-10-28T08:26:30Z</time>
      </trkpt>
      <trkpt lat="43.50687" lon="6.59982">
        <ele>75.7</ele>
        <time>2024-10-28T08:26:42Z</time>
      </trkpt>
      <trkpt lat="43.5068" lon="6.5999">
        <ele>76</ele>
        <time>2024-10-28T08:26:54Z</time>
      </trkpt>
      <trkpt lat="43.50673" lon="6.59999">
        <ele>76.9</ele>
        <time>2024-10-28T08:27:06Z</time>
      </trkpt>
      <trkpt lat="43.50667" lon="6.6001">
        <ele>77.7</ele>
        <time>2024-10-28T08:27:18Z</time>
      </trkpt>
      <trkpt lat="43.50661" lon="6.60019">
        <ele>78.2</ele>
        <time>2024-10-28T08:27:28Z</time>
      </trkpt>
      <trkpt lat="43.50656" lon="6.60031">
        <ele>78.6</ele>
        <time>2024-10-28T08:27:53Z</time>
      </trkpt>
      <trkpt lat="43.50649" lon="6.60039">
        <ele>78.9</ele>
        <time>2024-10-28T08:28:03Z</time>
      </trkpt>
      <trkpt lat="43.50642" lon="6.60048">
        <ele>79.9</ele>
        <time>2024-10-28T08:28:15Z</time>
      </trkpt>
      <trkpt lat="43.50636" lon="6.60059">
        <ele>80.2</ele>
        <time>2024-10-28T08:28:25Z</time>
      </trkpt>
      <trkpt lat="43.50629" lon="6.60069">
        <ele>80.8</ele>
        <time>2024-10-28T08:28:35Z</time>
      </trkpt>
      <trkpt lat="43.50622" lon="6.60076">
        <ele>81.9</ele>
        <time>2024-10-28T08:28:46Z</time>
      </trkpt>
      <trkpt lat="43.50619" lon="6.60089">
        <ele>78.3</ele>
        <time>2024-10-28T08:28:57Z</time>
      </trkpt>
      <trkpt lat="43.50612" lon="6.60098">
        <ele>82.4</ele>
        <time>2024-10-28T08:29:06Z</time>
      </trkpt>
      <trkpt lat="43.50605" lon="6.60107">
        <ele>83.6</ele>
        <time>2024-10-28T08:29:15Z</time>
      </trkpt>
      <trkpt lat="43.50599" lon="6.60117">
        <ele>83.7</ele>
        <time>2024-10-28T08:29:26Z</time>
      </trkpt>
      <trkpt lat="43.50592" lon="6.60127">
        <ele>83.5</ele>
        <time>2024-10-28T08:29:39Z</time>
      </trkpt>
      <trkpt lat="43.50585" lon="6.60136">
        <ele>83.9</ele>
        <time>2024-10-28T08:29:47Z</time>
      </trkpt>
      <trkpt lat="43.50578" lon="6.60145">
        <ele>84</ele>
        <time>2024-10-28T08:29:55Z</time>
      </trkpt>
      <trkpt lat="43.50572" lon="6.60155">
        <ele>83.8</ele>
        <time>2024-10-28T08:30:03Z</time>
      </trkpt>
      <trkpt lat="43.50566" lon="6.60166">
        <ele>83.7</ele>
        <time>2024-10-28T08:30:13Z</time>
      </trkpt>
      <trkpt lat="43.50562" lon="6.60177">
        <ele>83.4</ele>
        <time>2024-10-28T08:30:23Z</time>
      </trkpt>
      <trkpt lat="43.50555" lon="6.60187">
        <ele>83.2</ele>
        <time>2024-10-28T08:30:32Z</time>
      </trkpt>
      <trkpt lat="43.50549" lon="6.60197">
        <ele>83.2</ele>
        <time>2024-10-28T08:30:41Z</time>
      </trkpt>
      <trkpt lat="43.50546" lon="6.6021">
        <ele>83</ele>
        <time>2024-10-28T08:30:51Z</time>
      </trkpt>
      <trkpt lat="43.50545" lon="6.60222">
        <ele>82.7</ele>
        <time>2024-10-28T08:31:00Z</time>
      </trkpt>
      <trkpt lat="43.50541" lon="6.60234">
        <ele>81.9</ele>
        <time>2024-10-28T08:31:09Z</time>
      </trkpt>
      <trkpt lat="43.50534" lon="6.60243">
        <ele>81.6</ele>
        <time>2024-10-28T08:31:18Z</time>
      </trkpt>
      <trkpt lat="43.50528" lon="6.60254">
        <ele>81.6</ele>
        <time>2024-10-28T08:31:29Z</time>
      </trkpt>
      <trkpt lat="43.50523" lon="6.60266">
        <ele>81.6</ele>
        <time>2024-10-28T08:31:39Z</time>
      </trkpt>
      <trkpt lat="43.50517" lon="6.60277">
        <ele>81.8</ele>
        <time>2024-10-28T08:31:48Z</time>
      </trkpt>
      <trkpt lat="43.50512" lon="6.60288">
        <ele>81.8</ele>
        <time>2024-10-28T08:31:57Z</time>
      </trkpt>
      <trkpt lat="43.50505" lon="6.60298">
        <ele>82.1</ele>
        <time>2024-10-28T08:32:05Z</time>
      </trkpt>
      <trkpt lat="43.50501" lon="6.60308">
        <ele>81.8</ele>
        <time>2024-10-28T08:32:14Z</time>
      </trkpt>
      <trkpt lat="43.50495" lon="6.60319">
        <ele>82</ele>
        <time>2024-10-28T08:32:24Z</time>
      </trkpt>
      <trkpt lat="43.5049" lon="6.60331">
        <ele>81.7</ele>
        <time>2024-10-28T08:32:34Z</time>
      </trkpt>
      <trkpt lat="43.50485" lon="6.60341">
        <ele>81.4</ele>
        <time>2024-10-28T08:32:43Z</time>
      </trkpt>
      <trkpt lat="43.50481" lon="6.60353">
        <ele>81</ele>
        <time>2024-10-28T08:32:52Z</time>
      </trkpt>
      <trkpt lat="43.50478" lon="6.60364">
        <ele>80.8</ele>
        <time>2024-10-28T08:33:02Z</time>
      </trkpt>
      <trkpt lat="43.50476" lon="6.60377">
        <ele>80.2</ele>
        <time>2024-10-28T08:33:11Z</time>
      </trkpt>
      <trkpt lat="43.50472" lon="6.60388">
        <ele>80.3</ele>
        <time>2024-10-28T08:33:19Z</time>
      </trkpt>
      <trkpt lat="43.50464" lon="6.60395">
        <ele>79.4</ele>
        <time>2024-10-28T08:33:30Z</time>
      </trkpt>
      <trkpt lat="43.50457" lon="6.60404">
        <ele>79.8</ele>
        <time>2024-10-28T08:33:38Z</time>
      </trkpt>
      <trkpt lat="43.50451" lon="6.60414">
        <ele>79.9</ele>
        <time>2024-10-28T08:33:47Z</time>
      </trkpt>
      <trkpt lat="43.50445" lon="6.60424">
        <ele>79.6</ele>
        <time>2024-10-28T08:33:55Z</time>
      </trkpt>
      <trkpt lat="43.50438" lon="6.60432">
        <ele>79.1</ele>
        <time>2024-10-28T08:34:03Z</time>
      </trkpt>
      <trkpt lat="43.5043" lon="6.6044">
        <ele>78.8</ele>
        <time>2024-10-28T08:34:13Z</time>
      </trkpt>
      <trkpt lat="43.50423" lon="6.60448">
        <ele>78.4</ele>
        <time>2024-10-28T08:34:21Z</time>
      </trkpt>
      <trkpt lat="43.50416" lon="6.60458">
        <ele>78.2</ele>
        <time>2024-10-28T08:34:31Z</time>
      </trkpt>
      <trkpt lat="43.50411" lon="6.60468">
        <ele>77.9</ele>
        <time>2024-10-28T08:34:39Z</time>
      </trkpt>
      <trkpt lat="43.50408" lon="6.6048">
        <ele>77.7</ele>
        <time>2024-10-28T08:34:47Z</time>
      </trkpt>
      <trkpt lat="43.50402" lon="6.60489">
        <ele>77.5</ele>
        <time>2024-10-28T08:34:56Z</time>
      </trkpt>
      <trkpt lat="43.50396" lon="6.60499">
        <ele>77.4</ele>
        <time>2024-10-28T08:35:06Z</time>
      </trkpt>
      <trkpt lat="43.50389" lon="6.60508">
        <ele>77.3</ele>
        <time>2024-10-28T08:35:16Z</time>
      </trkpt>
      <trkpt lat="43.50385" lon="6.60522">
        <ele>77.1</ele>
        <time>2024-10-28T08:35:26Z</time>
      </trkpt>
      <trkpt lat="43.50384" lon="6.60534">
        <ele>77.3</ele>
        <time>2024-10-28T08:35:35Z</time>
      </trkpt>
      <trkpt lat="43.50382" lon="6.60547">
        <ele>76.9</ele>
        <time>2024-10-28T08:35:43Z</time>
      </trkpt>
      <trkpt lat="43.50375" lon="6.60556">
        <ele>76.5</ele>
        <time>2024-10-28T08:35:54Z</time>
      </trkpt>
      <trkpt lat="43.50371" lon="6.60568">
        <ele>76.1</ele>
        <time>2024-10-28T08:36:03Z</time>
      </trkpt>
      <trkpt lat="43.50369" lon="6.6058">
        <ele>76.1</ele>
        <time>2024-10-28T08:36:11Z</time>
      </trkpt>
      <trkpt lat="43.50371" lon="6.60593">
        <ele>75.7</ele>
        <time>2024-10-28T08:36:20Z</time>
      </trkpt>
      <trkpt lat="43.50375" lon="6.60605">
        <ele>75.1</ele>
        <time>2024-10-28T08:36:31Z</time>
      </trkpt>
      <trkpt lat="43.50377" lon="6.60619">
        <ele>74.6</ele>
        <time>2024-10-28T08:36:41Z</time>
      </trkpt>
      <trkpt lat="43.50376" lon="6.60632">
        <ele>74.4</ele>
        <time>2024-10-28T08:36:50Z</time>
      </trkpt>
      <trkpt lat="43.50373" lon="6.60644">
        <ele>74.2</ele>
        <time>2024-10-28T08:37:05Z</time>
      </trkpt>
      <trkpt lat="43.50371" lon="6.60656">
        <ele>73.9</ele>
        <time>2024-10-28T08:37:19Z</time>
      </trkpt>
      <trkpt lat="43.50371" lon="6.60669">
        <ele>73.5</ele>
        <time>2024-10-28T08:37:30Z</time>
      </trkpt>
      <trkpt lat="43.5037" lon="6.60681">
        <ele>73.1</ele>
        <time>2024-10-28T08:37:39Z</time>
      </trkpt>
      <trkpt lat="43.50368" lon="6.60694">
        <ele>72.8</ele>
        <time>2024-10-28T08:37:48Z</time>
      </trkpt>
      <trkpt lat="43.50369" lon="6.60707">
        <ele>72.7</ele>
        <time>2024-10-28T08:37:59Z</time>
      </trkpt>
      <trkpt lat="43.5037" lon="6.6072">
        <ele>72.3</ele>
        <time>2024-10-28T08:38:08Z</time>
      </trkpt>
      <trkpt lat="43.50371" lon="6.60733">
        <ele>71.9</ele>
        <time>2024-10-28T08:38:19Z</time>
      </trkpt>
      <trkpt lat="43.5037" lon="6.60746">
        <ele>71.8</ele>
        <time>2024-10-28T08:38:28Z</time>
      </trkpt>
      <trkpt lat="43.5037" lon="6.60759">
        <ele>71.8</ele>
        <time>2024-10-28T08:38:38Z</time>
      </trkpt>
      <trkpt lat="43.50367" lon="6.60771">
        <ele>71.4</ele>
        <time>2024-10-28T08:38:49Z</time>
      </trkpt>
      <trkpt lat="43.50365" lon="6.60784">
        <ele>71.5</ele>
        <time>2024-10-28T08:38:59Z</time>
      </trkpt>
      <trkpt lat="43.50363" lon="6.60797">
        <ele>71.1</ele>
        <time>2024-10-28T08:39:10Z</time>
      </trkpt>
      <trkpt lat="43.50359" lon="6.6081">
        <ele>70.8</ele>
        <time>2024-10-28T08:39:20Z</time>
      </trkpt>
      <trkpt lat="43.50358" lon="6.60822">
        <ele>70.6</ele>
        <time>2024-10-28T08:39:29Z</time>
      </trkpt>
      <trkpt lat="43.50359" lon="6.60836">
        <ele>70.4</ele>
        <time>2024-10-28T08:39:38Z</time>
      </trkpt>
      <trkpt lat="43.5036" lon="6.60849">
        <ele>69.8</ele>
        <time>2024-10-28T08:39:48Z</time>
      </trkpt>
      <trkpt lat="43.50359" lon="6.60862">
        <ele>69.9</ele>
        <time>2024-10-28T08:39:59Z</time>
      </trkpt>
      <trkpt lat="43.50359" lon="6.60875">
        <ele>69.8</ele>
        <time>2024-10-28T08:40:10Z</time>
      </trkpt>
      <trkpt lat="43.50359" lon="6.60889">
        <ele>69.4</ele>
        <time>2024-10-28T08:40:21Z</time>
      </trkpt>
      <trkpt lat="43.50358" lon="6.60902">
        <ele>69.3</ele>
        <time>2024-10-28T08:40:30Z</time>
      </trkpt>
      <trkpt lat="43.50353" lon="6.60912">
        <ele>69.1</ele>
        <time>2024-10-28T08:41:07Z</time>
      </trkpt>
      <trkpt lat="43.5035" lon="6.60925">
        <ele>69.1</ele>
        <time>2024-10-28T08:41:34Z</time>
      </trkpt>
      <trkpt lat="43.50351" lon="6.60937">
        <ele>69.4</ele>
        <time>2024-10-28T08:41:51Z</time>
      </trkpt>
      <trkpt lat="43.50345" lon="6.60948">
        <ele>69.4</ele>
        <time>2024-10-28T08:42:01Z</time>
      </trkpt>
      <trkpt lat="43.50339" lon="6.60958">
        <ele>69.4</ele>
        <time>2024-10-28T08:42:10Z</time>
      </trkpt>
      <trkpt lat="43.50333" lon="6.60967">
        <ele>69.6</ele>
        <time>2024-10-28T08:42:19Z</time>
      </trkpt>
      <trkpt lat="43.50327" lon="6.60977">
        <ele>69.8</ele>
        <time>2024-10-28T08:42:29Z</time>
      </trkpt>
      <trkpt lat="43.50322" lon="6.60989">
        <ele>70.1</ele>
        <time>2024-10-28T08:42:38Z</time>
      </trkpt>
      <trkpt lat="43.50318" lon="6.61001">
        <ele>70.5</ele>
        <time>2024-10-28T08:42:47Z</time>
      </trkpt>
      <trkpt lat="43.50315" lon="6.61013">
        <ele>70.9</ele>
        <time>2024-10-28T08:42:55Z</time>
      </trkpt>
      <trkpt lat="43.50312" lon="6.61025">
        <ele>71.2</ele>
        <time>2024-10-28T08:43:04Z</time>
      </trkpt>
      <trkpt lat="43.50309" lon="6.61038">
        <ele>71.6</ele>
        <time>2024-10-28T08:43:14Z</time>
      </trkpt>
      <trkpt lat="43.50304" lon="6.61049">
        <ele>72.1</ele>
        <time>2024-10-28T08:43:23Z</time>
      </trkpt>
      <trkpt lat="43.50297" lon="6.61058">
        <ele>72.9</ele>
        <time>2024-10-28T08:43:32Z</time>
      </trkpt>
      <trkpt lat="43.50293" lon="6.6107">
        <ele>72.5</ele>
        <time>2024-10-28T08:43:41Z</time>
      </trkpt>
      <trkpt lat="43.50286" lon="6.6108">
        <ele>72.1</ele>
        <time>2024-10-28T08:43:52Z</time>
      </trkpt>
      <trkpt lat="43.50283" lon="6.61091">
        <ele>71.6</ele>
        <time>2024-10-28T08:44:00Z</time>
      </trkpt>
      <trkpt lat="43.5028" lon="6.61103">
        <ele>71.8</ele>
        <time>2024-10-28T08:44:09Z</time>
      </trkpt>
      <trkpt lat="43.50275" lon="6.61114">
        <ele>71.5</ele>
        <time>2024-10-28T08:44:19Z</time>
      </trkpt>
      <trkpt lat="43.5027" lon="6.61125">
        <ele>71</ele>
        <time>2024-10-28T08:44:29Z</time>
      </trkpt>
      <trkpt lat="43.50263" lon="6.61134">
        <ele>70.6</ele>
        <time>2024-10-28T08:44:39Z</time>
      </trkpt>
      <trkpt lat="43.50257" lon="6.61143">
        <ele>69.9</ele>
        <time>2024-10-28T08:44:48Z</time>
      </trkpt>
      <trkpt lat="43.50252" lon="6.61154">
        <ele>69.7</ele>
        <time>2024-10-28T08:44:57Z</time>
      </trkpt>
      <trkpt lat="43.50247" lon="6.61166">
        <ele>69.6</ele>
        <time>2024-10-28T08:45:07Z</time>
      </trkpt>
      <trkpt lat="43.50241" lon="6.61175">
        <ele>69</ele>
        <time>2024-10-28T08:45:17Z</time>
      </trkpt>
      <trkpt lat="43.50236" lon="6.61186">
        <ele>68.1</ele>
        <time>2024-10-28T08:45:28Z</time>
      </trkpt>
      <trkpt lat="43.5023" lon="6.61196">
        <ele>66.9</ele>
        <time>2024-10-28T08:45:38Z</time>
      </trkpt>
      <trkpt lat="43.50225" lon="6.61208">
        <ele>66.5</ele>
        <time>2024-10-28T08:45:48Z</time>
      </trkpt>
      <trkpt lat="43.50219" lon="6.61217">
        <ele>66.6</ele>
        <time>2024-10-28T08:45:58Z</time>
      </trkpt>
      <trkpt lat="43.50213" lon="6.61227">
        <ele>67.1</ele>
        <time>2024-10-28T08:46:08Z</time>
      </trkpt>
      <trkpt lat="43.50208" lon="6.61237">
        <ele>67.6</ele>
        <time>2024-10-28T08:46:20Z</time>
      </trkpt>
      <trkpt lat="43.50202" lon="6.61247">
        <ele>68.4</ele>
        <time>2024-10-28T08:46:31Z</time>
      </trkpt>
      <trkpt lat="43.50195" lon="6.61257">
        <ele>69.2</ele>
        <time>2024-10-28T08:46:48Z</time>
      </trkpt>
      <trkpt lat="43.50189" lon="6.61267">
        <ele>69.8</ele>
        <time>2024-10-28T08:46:59Z</time>
      </trkpt>
      <trkpt lat="43.50183" lon="6.61276">
        <ele>70.6</ele>
        <time>2024-10-28T08:47:09Z</time>
      </trkpt>
      <trkpt lat="43.50178" lon="6.61286">
        <ele>71.4</ele>
        <time>2024-10-28T08:47:28Z</time>
      </trkpt>
      <trkpt lat="43.50171" lon="6.61294">
        <ele>72.6</ele>
        <time>2024-10-28T08:58:20Z</time>
      </trkpt>
      <trkpt lat="43.50162" lon="6.61299">
        <ele>72.6</ele>
        <time>2024-10-28T08:58:33Z</time>
      </trkpt>
      <trkpt lat="43.50155" lon="6.61307">
        <ele>72.9</ele>
        <time>2024-10-28T08:58:49Z</time>
      </trkpt>
      <trkpt lat="43.50147" lon="6.61314">
        <ele>73.1</ele>
        <time>2024-10-28T08:58:59Z</time>
      </trkpt>
      <trkpt lat="43.5014" lon="6.61322">
        <ele>72.8</ele>
        <time>2024-10-28T08:59:15Z</time>
      </trkpt>
      <trkpt lat="43.50133" lon="6.61331">
        <ele>72.8</ele>
        <time>2024-10-28T08:59:28Z</time>
      </trkpt>
      <trkpt lat="43.50124" lon="6.61336">
        <ele>72.9</ele>
        <time>2024-10-28T08:59:44Z</time>
      </trkpt>
      <trkpt lat="43.50116" lon="6.61343">
        <ele>72.8</ele>
        <time>2024-10-28T08:59:57Z</time>
      </trkpt>
      <trkpt lat="43.50108" lon="6.61348">
        <ele>72.8</ele>
        <time>2024-10-28T09:00:04Z</time>
      </trkpt>
      <trkpt lat="43.50099" lon="6.61353">
        <ele>72.8</ele>
        <time>2024-10-28T09:00:13Z</time>
      </trkpt>
      <trkpt lat="43.5009" lon="6.61358">
        <ele>72.7</ele>
        <time>2024-10-28T09:00:24Z</time>
      </trkpt>
      <trkpt lat="43.50083" lon="6.61366">
        <ele>72.6</ele>
        <time>2024-10-28T09:00:32Z</time>
      </trkpt>
      <trkpt lat="43.50075" lon="6.61375">
        <ele>72.4</ele>
        <time>2024-10-28T09:00:41Z</time>
      </trkpt>
      <trkpt lat="43.50067" lon="6.61381">
        <ele>72.3</ele>
        <time>2024-10-28T09:00:51Z</time>
      </trkpt>
      <trkpt lat="43.50061" lon="6.61391">
        <ele>72.4</ele>
        <time>2024-10-28T09:00:59Z</time>
      </trkpt>
      <trkpt lat="43.50053" lon="6.61398">
        <ele>72.2</ele>
        <time>2024-10-28T09:01:10Z</time>
      </trkpt>
      <trkpt lat="43.50047" lon="6.61409">
        <ele>72.1</ele>
        <time>2024-10-28T09:01:22Z</time>
      </trkpt>
      <trkpt lat="43.50042" lon="6.61419">
        <ele>71.8</ele>
        <time>2024-10-28T09:01:30Z</time>
      </trkpt>
      <trkpt lat="43.50035" lon="6.6143">
        <ele>71.4</ele>
        <time>2024-10-28T09:01:40Z</time>
      </trkpt>
      <trkpt lat="43.5003" lon="6.6144">
        <ele>71.2</ele>
        <time>2024-10-28T09:01:49Z</time>
      </trkpt>
      <trkpt lat="43.50024" lon="6.6145">
        <ele>70.9</ele>
        <time>2024-10-28T09:01:57Z</time>
      </trkpt>
      <trkpt lat="43.50018" lon="6.6146">
        <ele>70.7</ele>
        <time>2024-10-28T09:02:07Z</time>
      </trkpt>
      <trkpt lat="43.50011" lon="6.6147">
        <ele>70.6</ele>
        <time>2024-10-28T09:02:18Z</time>
      </trkpt>
      <trkpt lat="43.50005" lon="6.61481">
        <ele>70.3</ele>
        <time>2024-10-28T09:02:27Z</time>
      </trkpt>
      <trkpt lat="43.49999" lon="6.61493">
        <ele>70.1</ele>
        <time>2024-10-28T09:02:35Z</time>
      </trkpt>
      <trkpt lat="43.49993" lon="6.61502">
        <ele>69.8</ele>
        <time>2024-10-28T09:02:44Z</time>
      </trkpt>
      <trkpt lat="43.49987" lon="6.61512">
        <ele>69.6</ele>
        <time>2024-10-28T09:02:54Z</time>
      </trkpt>
      <trkpt lat="43.49981" lon="6.61523">
        <ele>69.4</ele>
        <time>2024-10-28T09:03:04Z</time>
      </trkpt>
      <trkpt lat="43.49975" lon="6.61534">
        <ele>69.2</ele>
        <time>2024-10-28T09:03:13Z</time>
      </trkpt>
      <trkpt lat="43.49969" lon="6.61543">
        <ele>68.8</ele>
        <time>2024-10-28T09:03:22Z</time>
      </trkpt>
      <trkpt lat="43.49962" lon="6.61551">
        <ele>68.7</ele>
        <time>2024-10-28T09:03:31Z</time>
      </trkpt>
      <trkpt lat="43.49955" lon="6.61559">
        <ele>68.6</ele>
        <time>2024-10-28T09:03:39Z</time>
      </trkpt>
      <trkpt lat="43.49947" lon="6.61566">
        <ele>68.4</ele>
        <time>2024-10-28T09:03:48Z</time>
      </trkpt>
      <trkpt lat="43.49939" lon="6.61573">
        <ele>68.3</ele>
        <time>2024-10-28T09:03:56Z</time>
      </trkpt>
      <trkpt lat="43.49931" lon="6.61581">
        <ele>68.1</ele>
        <time>2024-10-28T09:04:06Z</time>
      </trkpt>
      <trkpt lat="43.49926" lon="6.6159">
        <ele>68.2</ele>
        <time>2024-10-28T09:04:13Z</time>
      </trkpt>
      <trkpt lat="43.49918" lon="6.61599">
        <ele>68.2</ele>
        <time>2024-10-28T09:04:22Z</time>
      </trkpt>
      <trkpt lat="43.49912" lon="6.61608">
        <ele>68</ele>
        <time>2024-10-28T09:04:33Z</time>
      </trkpt>
      <trkpt lat="43.49906" lon="6.61617">
        <ele>68</ele>
        <time>2024-10-28T09:04:42Z</time>
      </trkpt>
      <trkpt lat="43.49901" lon="6.61628">
        <ele>67.8</ele>
        <time>2024-10-28T09:04:50Z</time>
      </trkpt>
      <trkpt lat="43.49896" lon="6.61639">
        <ele>67.1</ele>
        <time>2024-10-28T09:05:02Z</time>
      </trkpt>
      <trkpt lat="43.4989" lon="6.61649">
        <ele>66.1</ele>
        <time>2024-10-28T09:05:16Z</time>
      </trkpt>
      <trkpt lat="43.49889" lon="6.61661">
        <ele>63.4</ele>
        <time>2024-10-28T09:05:41Z</time>
      </trkpt>
      <trkpt lat="43.49886" lon="6.61674">
        <ele>60.9</ele>
        <time>2024-10-28T09:06:08Z</time>
      </trkpt>
      <trkpt lat="43.49886" lon="6.61687">
        <ele>59.5</ele>
        <time>2024-10-28T09:06:22Z</time>
      </trkpt>
      <trkpt lat="43.49881" lon="6.61698">
        <ele>58.7</ele>
        <time>2024-10-28T09:06:37Z</time>
      </trkpt>
      <trkpt lat="43.49872" lon="6.61701">
        <ele>58.6</ele>
        <time>2024-10-28T09:06:48Z</time>
      </trkpt>
      <trkpt lat="43.49863" lon="6.617">
        <ele>57.3</ele>
        <time>2024-10-28T09:07:05Z</time>
      </trkpt>
      <trkpt lat="43.49854" lon="6.617">
        <ele>56.1</ele>
        <time>2024-10-28T09:07:20Z</time>
      </trkpt>
      <trkpt lat="43.49845" lon="6.61696">
        <ele>54.9</ele>
        <time>2024-10-28T09:07:41Z</time>
      </trkpt>
      <trkpt lat="43.49836" lon="6.61695">
        <ele>54.2</ele>
        <time>2024-10-28T09:08:00Z</time>
      </trkpt>
      <trkpt lat="43.49827" lon="6.617">
        <ele>53.9</ele>
        <time>2024-10-28T09:08:13Z</time>
      </trkpt>
      <trkpt lat="43.49822" lon="6.6171">
        <ele>53.2</ele>
        <time>2024-10-28T09:09:19Z</time>
      </trkpt>
      <trkpt lat="43.49816" lon="6.6172">
        <ele>52.7</ele>
        <time>2024-10-28T09:09:38Z</time>
      </trkpt>
      <trkpt lat="43.49811" lon="6.6173">
        <ele>51.9</ele>
        <time>2024-10-28T09:09:58Z</time>
      </trkpt>
      <trkpt lat="43.49804" lon="6.61737">
        <ele>51.4</ele>
        <time>2024-10-28T09:10:12Z</time>
      </trkpt>
      <trkpt lat="43.49798" lon="6.61746">
        <ele>51.1</ele>
        <time>2024-10-28T09:10:25Z</time>
      </trkpt>
      <trkpt lat="43.49795" lon="6.61759">
        <ele>50.8</ele>
        <time>2024-10-28T09:10:36Z</time>
      </trkpt>
      <trkpt lat="43.49794" lon="6.61772">
        <ele>50.5</ele>
        <time>2024-10-28T09:10:47Z</time>
      </trkpt>
      <trkpt lat="43.49793" lon="6.61784">
        <ele>50.3</ele>
        <time>2024-10-28T09:11:03Z</time>
      </trkpt>
      <trkpt lat="43.49789" lon="6.61796">
        <ele>50.1</ele>
        <time>2024-10-28T09:11:21Z</time>
      </trkpt>
      <trkpt lat="43.49789" lon="6.61809">
        <ele>50.1</ele>
        <time>2024-10-28T09:11:40Z</time>
      </trkpt>
      <trkpt lat="43.4979" lon="6.61821">
        <ele>50.2</ele>
        <time>2024-10-28T09:11:57Z</time>
      </trkpt>
      <trkpt lat="43.49786" lon="6.61833">
        <ele>49.5</ele>
        <time>2024-10-28T09:12:23Z</time>
      </trkpt>
      <trkpt lat="43.49785" lon="6.61845">
        <ele>50.1</ele>
        <time>2024-10-28T09:15:54Z</time>
      </trkpt>
      <trkpt lat="43.4979" lon="6.61857">
        <ele>50.5</ele>
        <time>2024-10-28T09:17:38Z</time>
      </trkpt>
      <trkpt lat="43.49793" lon="6.61869">
        <ele>50.2</ele>
        <time>2024-10-28T09:17:48Z</time>
      </trkpt>
      <trkpt lat="43.49796" lon="6.61881">
        <ele>49.2</ele>
        <time>2024-10-28T09:18:42Z</time>
      </trkpt>
      <trkpt lat="43.49791" lon="6.61893">
        <ele>49.7</ele>
        <time>2024-10-28T09:19:16Z</time>
      </trkpt>
      <trkpt lat="43.49786" lon="6.61903">
        <ele>49.3</ele>
        <time>2024-10-28T09:19:32Z</time>
      </trkpt>
      <trkpt lat="43.4978" lon="6.61914">
        <ele>49</ele>
        <time>2024-10-28T09:19:45Z</time>
      </trkpt>
      <trkpt lat="43.49777" lon="6.61926">
        <ele>49</ele>
        <time>2024-10-28T09:20:07Z</time>
      </trkpt>
      <trkpt lat="43.49771" lon="6.61935">
        <ele>48.9</ele>
        <time>2024-10-28T09:20:27Z</time>
      </trkpt>
      <trkpt lat="43.49764" lon="6.61944">
        <ele>48.2</ele>
        <time>2024-10-28T09:21:27Z</time>
      </trkpt>
      <trkpt lat="43.49756" lon="6.61938">
        <ele>48.2</ele>
        <time>2024-10-28T09:22:34Z</time>
      </trkpt>
      <trkpt lat="43.49756" lon="6.61951">
        <ele>48.3</ele>
        <time>2024-10-28T09:25:41Z</time>
      </trkpt>
      <trkpt lat="43.49753" lon="6.61964">
        <ele>49.3</ele>
        <time>2024-10-28T09:26:04Z</time>
      </trkpt>
      <trkpt lat="43.49748" lon="6.61975">
        <ele>50.5</ele>
        <time>2024-10-28T09:26:19Z</time>
      </trkpt>
      <trkpt lat="43.49743" lon="6.61985">
        <ele>51.6</ele>
        <time>2024-10-28T09:27:36Z</time>
      </trkpt>
      <trkpt lat="43.49733" lon="6.61982">
        <ele>53</ele>
        <time>2024-10-28T09:28:57Z</time>
      </trkpt>
      <trkpt lat="43.49724" lon="6.61981">
        <ele>52</ele>
        <time>2024-10-28T09:29:08Z</time>
      </trkpt>
      <trkpt lat="43.49715" lon="6.61979">
        <ele>52.7</ele>
        <time>2024-10-28T09:29:22Z</time>
      </trkpt>
      <trkpt lat="43.49706" lon="6.61978">
        <ele>52.9</ele>
        <time>2024-10-28T09:29:35Z</time>
      </trkpt>
      <trkpt lat="43.49696" lon="6.61978">
        <ele>53.6</ele>
        <time>2024-10-28T09:29:47Z</time>
      </trkpt>
      <trkpt lat="43.49687" lon="6.61983">
        <ele>54.2</ele>
        <time>2024-10-28T09:29:59Z</time>
      </trkpt>
      <trkpt lat="43.49681" lon="6.61993">
        <ele>55.3</ele>
        <time>2024-10-28T09:30:09Z</time>
      </trkpt>
      <trkpt lat="43.49675" lon="6.62003">
        <ele>56.3</ele>
        <time>2024-10-28T09:30:20Z</time>
      </trkpt>
      <trkpt lat="43.49668" lon="6.62011">
        <ele>56.7</ele>
        <time>2024-10-28T09:30:33Z</time>
      </trkpt>
      <trkpt lat="43.49659" lon="6.62011">
        <ele>56.9</ele>
        <time>2024-10-28T09:30:44Z</time>
      </trkpt>
      <trkpt lat="43.49649" lon="6.62012">
        <ele>57.5</ele>
        <time>2024-10-28T09:30:58Z</time>
      </trkpt>
      <trkpt lat="43.4964" lon="6.62013">
        <ele>57.8</ele>
        <time>2024-10-28T09:31:07Z</time>
      </trkpt>
      <trkpt lat="43.49631" lon="6.62014">
        <ele>58.3</ele>
        <time>2024-10-28T09:31:15Z</time>
      </trkpt>
      <trkpt lat="43.49622" lon="6.62013">
        <ele>58.4</ele>
        <time>2024-10-28T09:31:24Z</time>
      </trkpt>
      <trkpt lat="43.49613" lon="6.62007">
        <ele>58.6</ele>
        <time>2024-10-28T09:31:34Z</time>
      </trkpt>
      <trkpt lat="43.49604" lon="6.62005">
        <ele>58.8</ele>
        <time>2024-10-28T09:31:44Z</time>
      </trkpt>
      <trkpt lat="43.49595" lon="6.62003">
        <ele>58.9</ele>
        <time>2024-10-28T09:31:53Z</time>
      </trkpt>
      <trkpt lat="43.49585" lon="6.62">
        <ele>58.9</ele>
        <time>2024-10-28T09:32:03Z</time>
      </trkpt>
      <trkpt lat="43.49576" lon="6.61997">
        <ele>58.7</ele>
        <time>2024-10-28T09:32:13Z</time>
      </trkpt>
      <trkpt lat="43.49567" lon="6.61991">
        <ele>58.7</ele>
        <time>2024-10-28T09:32:24Z</time>
      </trkpt>
      <trkpt lat="43.49559" lon="6.61984">
        <ele>58.7</ele>
        <time>2024-10-28T09:32:34Z</time>
      </trkpt>
      <trkpt lat="43.49551" lon="6.61979">
        <ele>58.4</ele>
        <time>2024-10-28T09:32:44Z</time>
      </trkpt>
      <trkpt lat="43.49543" lon="6.61971">
        <ele>58.2</ele>
        <time>2024-10-28T09:32:55Z</time>
      </trkpt>
      <trkpt lat="43.49533" lon="6.61971">
        <ele>57.9</ele>
        <time>2024-10-28T09:33:08Z</time>
      </trkpt>
      <trkpt lat="43.49525" lon="6.61966">
        <ele>57.4</ele>
        <time>2024-10-28T09:33:27Z</time>
      </trkpt>
      <trkpt lat="43.49517" lon="6.61959">
        <ele>56.7</ele>
        <time>2024-10-28T09:33:37Z</time>
      </trkpt>
      <trkpt lat="43.49509" lon="6.61952">
        <ele>56.9</ele>
        <time>2024-10-28T09:33:53Z</time>
      </trkpt>
      <trkpt lat="43.495" lon="6.61948">
        <ele>56.3</ele>
        <time>2024-10-28T09:34:23Z</time>
      </trkpt>
      <trkpt lat="43.49493" lon="6.61939">
        <ele>55.4</ele>
        <time>2024-10-28T09:34:50Z</time>
      </trkpt>
      <trkpt lat="43.49485" lon="6.61934">
        <ele>56</ele>
        <time>2024-10-28T09:35:03Z</time>
      </trkpt>
      <trkpt lat="43.49476" lon="6.6193">
        <ele>56.5</ele>
        <time>2024-10-28T09:35:15Z</time>
      </trkpt>
      <trkpt lat="43.49467" lon="6.61925">
        <ele>56.6</ele>
        <time>2024-10-28T09:35:28Z</time>
      </trkpt>
      <trkpt lat="43.49458" lon="6.61922">
        <ele>56.9</ele>
        <time>2024-10-28T09:35:41Z</time>
      </trkpt>
      <trkpt lat="43.49449" lon="6.61919">
        <ele>56.8</ele>
        <time>2024-10-28T09:35:54Z</time>
      </trkpt>
      <trkpt lat="43.4944" lon="6.61914">
        <ele>57.6</ele>
        <time>2024-10-28T09:36:09Z</time>
      </trkpt>
      <trkpt lat="43.49432" lon="6.61909">
        <ele>57.7</ele>
        <time>2024-10-28T09:36:20Z</time>
      </trkpt>
      <trkpt lat="43.49423" lon="6.61905">
        <ele>57.4</ele>
        <time>2024-10-28T09:36:32Z</time>
      </trkpt>
      <trkpt lat="43.49415" lon="6.619">
        <ele>58.1</ele>
        <time>2024-10-28T09:36:42Z</time>
      </trkpt>
      <trkpt lat="43.49406" lon="6.61893">
        <ele>58.1</ele>
        <time>2024-10-28T09:36:53Z</time>
      </trkpt>
      <trkpt lat="43.494" lon="6.61884">
        <ele>57.8</ele>
        <time>2024-10-28T09:37:03Z</time>
      </trkpt>
      <trkpt lat="43.49393" lon="6.61876">
        <ele>56.9</ele>
        <time>2024-10-28T09:37:14Z</time>
      </trkpt>
      <trkpt lat="43.49385" lon="6.61867">
        <ele>56.3</ele>
        <time>2024-10-28T09:37:25Z</time>
      </trkpt>
      <trkpt lat="43.49379" lon="6.61857">
        <ele>55.3</ele>
        <time>2024-10-28T09:37:37Z</time>
      </trkpt>
      <trkpt lat="43.49375" lon="6.61844">
        <ele>54.7</ele>
        <time>2024-10-28T09:37:51Z</time>
      </trkpt>
      <trkpt lat="43.49375" lon="6.61832">
        <ele>54.6</ele>
        <time>2024-10-28T09:38:06Z</time>
      </trkpt>
      <trkpt lat="43.49368" lon="6.61823">
        <ele>54.5</ele>
        <time>2024-10-28T09:39:02Z</time>
      </trkpt>
      <trkpt lat="43.49359" lon="6.6182">
        <ele>54.5</ele>
        <time>2024-10-28T09:39:45Z</time>
      </trkpt>
      <trkpt lat="43.49351" lon="6.61814">
        <ele>54.3</ele>
        <time>2024-10-28T09:40:10Z</time>
      </trkpt>
      <trkpt lat="43.49343" lon="6.61819">
        <ele>54.4</ele>
        <time>2024-10-28T09:40:23Z</time>
      </trkpt>
      <trkpt lat="43.49335" lon="6.61826">
        <ele>54.5</ele>
        <time>2024-10-28T09:40:40Z</time>
      </trkpt>
      <trkpt lat="43.49327" lon="6.6183">
        <ele>54.5</ele>
        <time>2024-10-28T09:41:07Z</time>
      </trkpt>
      <trkpt lat="43.49319" lon="6.61824">
        <ele>54.4</ele>
        <time>2024-10-28T09:41:34Z</time>
      </trkpt>
      <trkpt lat="43.4931" lon="6.61829">
        <ele>54.7</ele>
        <time>2024-10-28T09:41:47Z</time>
      </trkpt>
      <trkpt lat="43.49303" lon="6.61837">
        <ele>54.9</ele>
        <time>2024-10-28T09:41:59Z</time>
      </trkpt>
      <trkpt lat="43.49295" lon="6.61846">
        <ele>55</ele>
        <time>2024-10-28T09:42:10Z</time>
      </trkpt>
      <trkpt lat="43.49288" lon="6.61853">
        <ele>54.9</ele>
        <time>2024-10-28T09:42:21Z</time>
      </trkpt>
      <trkpt lat="43.4928" lon="6.61858">
        <ele>55</ele>
        <time>2024-10-28T09:42:30Z</time>
      </trkpt>
      <trkpt lat="43.49271" lon="6.61863">
        <ele>55.1</ele>
        <time>2024-10-28T09:42:42Z</time>
      </trkpt>
      <trkpt lat="43.49262" lon="6.61864">
        <ele>55.3</ele>
        <time>2024-10-28T09:42:49Z</time>
      </trkpt>
      <trkpt lat="43.49253" lon="6.61868">
        <ele>55.5</ele>
        <time>2024-10-28T09:42:58Z</time>
      </trkpt>
      <trkpt lat="43.49244" lon="6.61871">
        <ele>56.1</ele>
        <time>2024-10-28T09:43:05Z</time>
      </trkpt>
      <trkpt lat="43.49235" lon="6.61876">
        <ele>56.6</ele>
        <time>2024-10-28T09:43:13Z</time>
      </trkpt>
      <trkpt lat="43.49226" lon="6.6188">
        <ele>56.7</ele>
        <time>2024-10-28T09:43:22Z</time>
      </trkpt>
      <trkpt lat="43.49216" lon="6.61881">
        <ele>56.8</ele>
        <time>2024-10-28T09:43:30Z</time>
      </trkpt>
      <trkpt lat="43.49207" lon="6.61883">
        <ele>57.4</ele>
        <time>2024-10-28T09:43:42Z</time>
      </trkpt>
      <trkpt lat="43.49198" lon="6.61885">
        <ele>57.9</ele>
        <time>2024-10-28T09:44:20Z</time>
      </trkpt>
      <trkpt lat="43.49189" lon="6.61888">
        <ele>58.3</ele>
        <time>2024-10-28T09:47:16Z</time>
      </trkpt>
      <trkpt lat="43.4918" lon="6.61893">
        <ele>58.5</ele>
        <time>2024-10-28T09:47:31Z</time>
      </trkpt>
      <trkpt lat="43.4917" lon="6.61892">
        <ele>58.4</ele>
        <time>2024-10-28T09:47:56Z</time>
      </trkpt>
      <trkpt lat="43.49161" lon="6.61889">
        <ele>58</ele>
        <time>2024-10-28T09:48:29Z</time>
      </trkpt>
      <trkpt lat="43.49162" lon="6.61876">
        <ele>58.1</ele>
        <time>2024-10-28T09:48:46Z</time>
      </trkpt>
      <trkpt lat="43.49158" lon="6.61864">
        <ele>58.3</ele>
        <time>2024-10-28T09:50:13Z</time>
      </trkpt>
      <trkpt lat="43.49157" lon="6.61851">
        <ele>58.5</ele>
        <time>2024-10-28T09:50:30Z</time>
      </trkpt>
      <trkpt lat="43.49157" lon="6.61839">
        <ele>58.7</ele>
        <time>2024-10-28T09:50:43Z</time>
      </trkpt>
      <trkpt lat="43.49155" lon="6.61827">
        <ele>58.8</ele>
        <time>2024-10-28T09:50:54Z</time>
      </trkpt>
      <trkpt lat="43.49153" lon="6.61814">
        <ele>58.9</ele>
        <time>2024-10-28T09:51:25Z</time>
      </trkpt>
      <trkpt lat="43.49148" lon="6.61803">
        <ele>59.1</ele>
        <time>2024-10-28T09:51:35Z</time>
      </trkpt>
      <trkpt lat="43.49144" lon="6.61792">
        <ele>59.2</ele>
        <time>2024-10-28T09:51:44Z</time>
      </trkpt>
      <trkpt lat="43.4914" lon="6.6178">
        <ele>59.9</ele>
        <time>2024-10-28T09:52:02Z</time>
      </trkpt>
      <trkpt lat="43.49143" lon="6.61767">
        <ele>60.2</ele>
        <time>2024-10-28T09:52:14Z</time>
      </trkpt>
      <trkpt lat="43.49146" lon="6.61755">
        <ele>60.3</ele>
        <time>2024-10-28T09:52:24Z</time>
      </trkpt>
      <trkpt lat="43.49144" lon="6.61769">
        <ele>60</ele>
        <time>2024-10-28T09:52:59Z</time>
      </trkpt>
      <trkpt lat="43.49144" lon="6.61782">
        <ele>60.8</ele>
        <time>2024-10-28T09:53:11Z</time>
      </trkpt>
      <trkpt lat="43.49147" lon="6.61795">
        <ele>60</ele>
        <time>2024-10-28T09:53:22Z</time>
      </trkpt>
      <trkpt lat="43.49154" lon="6.61804">
        <ele>59.9</ele>
        <time>2024-10-28T09:53:33Z</time>
      </trkpt>
      <trkpt lat="43.49158" lon="6.61815">
        <ele>59.8</ele>
        <time>2024-10-28T09:53:44Z</time>
      </trkpt>
      <trkpt lat="43.4916" lon="6.61828">
        <ele>59.6</ele>
        <time>2024-10-28T09:53:56Z</time>
      </trkpt>
      <trkpt lat="43.4916" lon="6.61842">
        <ele>59.4</ele>
        <time>2024-10-28T09:54:07Z</time>
      </trkpt>
      <trkpt lat="43.49161" lon="6.61855">
        <ele>59.2</ele>
        <time>2024-10-28T09:54:18Z</time>
      </trkpt>
      <trkpt lat="43.4916" lon="6.61868">
        <ele>59.2</ele>
        <time>2024-10-28T09:54:28Z</time>
      </trkpt>
      <trkpt lat="43.49162" lon="6.6188">
        <ele>59</ele>
        <time>2024-10-28T09:54:38Z</time>
      </trkpt>
      <trkpt lat="43.49164" lon="6.61893">
        <ele>59.2</ele>
        <time>2024-10-28T09:54:49Z</time>
      </trkpt>
      <trkpt lat="43.49159" lon="6.61903">
        <ele>59</ele>
        <time>2024-10-28T09:55:02Z</time>
      </trkpt>
      <trkpt lat="43.4915" lon="6.61907">
        <ele>58.9</ele>
        <time>2024-10-28T09:55:15Z</time>
      </trkpt>
      <trkpt lat="43.49141" lon="6.61908">
        <ele>58.6</ele>
        <time>2024-10-28T09:55:33Z</time>
      </trkpt>
      <trkpt lat="43.49132" lon="6.61907">
        <ele>58.2</ele>
        <time>2024-10-28T09:55:44Z</time>
      </trkpt>
      <trkpt lat="43.49122" lon="6.61905">
        <ele>57.9</ele>
        <time>2024-10-28T09:55:55Z</time>
      </trkpt>
      <trkpt lat="43.49113" lon="6.61903">
        <ele>57.4</ele>
        <time>2024-10-28T09:56:09Z</time>
      </trkpt>
      <trkpt lat="43.49104" lon="6.61902">
        <ele>57</ele>
        <time>2024-10-28T09:56:20Z</time>
      </trkpt>
      <trkpt lat="43.49095" lon="6.61905">
        <ele>56.8</ele>
        <time>2024-10-28T09:56:34Z</time>
      </trkpt>
      <trkpt lat="43.49085" lon="6.61906">
        <ele>56.1</ele>
        <time>2024-10-28T09:56:48Z</time>
      </trkpt>
      <trkpt lat="43.49077" lon="6.6191">
        <ele>56</ele>
        <time>2024-10-28T09:56:59Z</time>
      </trkpt>
      <trkpt lat="43.49068" lon="6.61914">
        <ele>55.5</ele>
        <time>2024-10-28T09:57:10Z</time>
      </trkpt>
      <trkpt lat="43.49059" lon="6.6192">
        <ele>54.3</ele>
        <time>2024-10-28T09:57:22Z</time>
      </trkpt>
      <trkpt lat="43.4905" lon="6.61925">
        <ele>53.6</ele>
        <time>2024-10-28T09:57:33Z</time>
      </trkpt>
      <trkpt lat="43.49041" lon="6.61927">
        <ele>52.9</ele>
        <time>2024-10-28T09:57:46Z</time>
      </trkpt>
      <trkpt lat="43.49031" lon="6.61929">
        <ele>51.9</ele>
        <time>2024-10-28T09:57:58Z</time>
      </trkpt>
      <trkpt lat="43.49022" lon="6.61929">
        <ele>51.4</ele>
        <time>2024-10-28T09:58:13Z</time>
      </trkpt>
      <trkpt lat="43.49013" lon="6.61932">
        <ele>51.7</ele>
        <time>2024-10-28T09:58:44Z</time>
      </trkpt>
      <trkpt lat="43.49003" lon="6.61933">
        <ele>51.4</ele>
        <time>2024-10-28T09:58:56Z</time>
      </trkpt>
      <trkpt lat="43.48994" lon="6.61936">
        <ele>50.9</ele>
        <time>2024-10-28T09:59:10Z</time>
      </trkpt>
      <trkpt lat="43.48985" lon="6.6194">
        <ele>50.4</ele>
        <time>2024-10-28T09:59:36Z</time>
      </trkpt>
      <trkpt lat="43.48976" lon="6.61942">
        <ele>50.6</ele>
        <time>2024-10-28T09:59:49Z</time>
      </trkpt>
      <trkpt lat="43.48967" lon="6.61945">
        <ele>50.8</ele>
        <time>2024-10-28T09:59:59Z</time>
      </trkpt>
      <trkpt lat="43.48958" lon="6.6195">
        <ele>51.3</ele>
        <time>2024-10-28T10:00:10Z</time>
      </trkpt>
      <trkpt lat="43.4895" lon="6.61952">
        <ele>52</ele>
        <time>2024-10-28T10:00:21Z</time>
      </trkpt>
      <trkpt lat="43.4894" lon="6.6195">
        <ele>52.5</ele>
        <time>2024-10-28T10:00:31Z</time>
      </trkpt>
      <trkpt lat="43.4893" lon="6.61946">
        <ele>53.1</ele>
        <time>2024-10-28T10:00:41Z</time>
      </trkpt>
      <trkpt lat="43.48921" lon="6.61944">
        <ele>53.6</ele>
        <time>2024-10-28T10:00:50Z</time>
      </trkpt>
      <trkpt lat="43.48912" lon="6.61946">
        <ele>53.7</ele>
        <time>2024-10-28T10:01:03Z</time>
      </trkpt>
      <trkpt lat="43.48903" lon="6.61945">
        <ele>54</ele>
        <time>2024-10-28T10:01:17Z</time>
      </trkpt>
      <trkpt lat="43.48894" lon="6.61945">
        <ele>54.4</ele>
        <time>2024-10-28T10:01:27Z</time>
      </trkpt>
      <trkpt lat="43.48884" lon="6.61944">
        <ele>55.1</ele>
        <time>2024-10-28T10:01:39Z</time>
      </trkpt>
      <trkpt lat="43.48875" lon="6.61945">
        <ele>55.9</ele>
        <time>2024-10-28T10:01:49Z</time>
      </trkpt>
      <trkpt lat="43.48865" lon="6.61944">
        <ele>56.7</ele>
        <time>2024-10-28T10:02:00Z</time>
      </trkpt>
      <trkpt lat="43.48856" lon="6.61946">
        <ele>57.5</ele>
        <time>2024-10-28T10:02:11Z</time>
      </trkpt>
      <trkpt lat="43.48847" lon="6.61951">
        <ele>58.3</ele>
        <time>2024-10-28T10:02:23Z</time>
      </trkpt>
      <trkpt lat="43.48838" lon="6.61954">
        <ele>59.4</ele>
        <time>2024-10-28T10:02:36Z</time>
      </trkpt>
      <trkpt lat="43.4883" lon="6.61958">
        <ele>59.9</ele>
        <time>2024-10-28T10:02:49Z</time>
      </trkpt>
      <trkpt lat="43.4882" lon="6.61961">
        <ele>60.8</ele>
        <time>2024-10-28T10:03:01Z</time>
      </trkpt>
      <trkpt lat="43.48811" lon="6.61965">
        <ele>61.6</ele>
        <time>2024-10-28T10:03:15Z</time>
      </trkpt>
      <trkpt lat="43.48802" lon="6.61968">
        <ele>62.9</ele>
        <time>2024-10-28T10:03:46Z</time>
      </trkpt>
      <trkpt lat="43.48793" lon="6.61968">
        <ele>63.6</ele>
        <time>2024-10-28T10:04:06Z</time>
      </trkpt>
      <trkpt lat="43.48784" lon="6.61971">
        <ele>64.2</ele>
        <time>2024-10-28T10:04:17Z</time>
      </trkpt>
      <trkpt lat="43.48775" lon="6.61976">
        <ele>64.7</ele>
        <time>2024-10-28T10:04:29Z</time>
      </trkpt>
      <trkpt lat="43.48765" lon="6.61978">
        <ele>65.1</ele>
        <time>2024-10-28T10:04:40Z</time>
      </trkpt>
      <trkpt lat="43.48756" lon="6.61981">
        <ele>65.3</ele>
        <time>2024-10-28T10:04:53Z</time>
      </trkpt>
      <trkpt lat="43.48747" lon="6.61982">
        <ele>65.6</ele>
        <time>2024-10-28T10:05:02Z</time>
      </trkpt>
      <trkpt lat="43.48738" lon="6.61979">
        <ele>65.7</ele>
        <time>2024-10-28T10:05:11Z</time>
      </trkpt>
      <trkpt lat="43.48728" lon="6.61979">
        <ele>66.2</ele>
        <time>2024-10-28T10:05:21Z</time>
      </trkpt>
      <trkpt lat="43.48719" lon="6.61978">
        <ele>66.6</ele>
        <time>2024-10-28T10:05:30Z</time>
      </trkpt>
      <trkpt lat="43.48709" lon="6.61978">
        <ele>67.3</ele>
        <time>2024-10-28T10:05:41Z</time>
      </trkpt>
      <trkpt lat="43.487" lon="6.61977">
        <ele>68</ele>
        <time>2024-10-28T10:05:51Z</time>
      </trkpt>
      <trkpt lat="43.4869" lon="6.61978">
        <ele>68.5</ele>
        <time>2024-10-28T10:06:03Z</time>
      </trkpt>
      <trkpt lat="43.48681" lon="6.61977">
        <ele>68.9</ele>
        <time>2024-10-28T10:06:24Z</time>
      </trkpt>
      <trkpt lat="43.48672" lon="6.61976">
        <ele>68.8</ele>
        <time>2024-10-28T10:07:01Z</time>
      </trkpt>
      <trkpt lat="43.48663" lon="6.61972">
        <ele>68.5</ele>
        <time>2024-10-28T10:07:22Z</time>
      </trkpt>
      <trkpt lat="43.48654" lon="6.61969">
        <ele>68.4</ele>
        <time>2024-10-28T10:07:32Z</time>
      </trkpt>
      <trkpt lat="43.48645" lon="6.61965">
        <ele>67.7</ele>
        <time>2024-10-28T10:07:41Z</time>
      </trkpt>
      <trkpt lat="43.48636" lon="6.61958">
        <ele>67.3</ele>
        <time>2024-10-28T10:08:00Z</time>
      </trkpt>
      <trkpt lat="43.4863" lon="6.61949">
        <ele>65.7</ele>
        <time>2024-10-28T10:08:10Z</time>
      </trkpt>
      <trkpt lat="43.48623" lon="6.6194">
        <ele>64.9</ele>
        <time>2024-10-28T10:08:20Z</time>
      </trkpt>
      <trkpt lat="43.48616" lon="6.61931">
        <ele>64.2</ele>
        <time>2024-10-28T10:08:30Z</time>
      </trkpt>
      <trkpt lat="43.48607" lon="6.61929">
        <ele>63</ele>
        <time>2024-10-28T10:09:24Z</time>
      </trkpt>
      <trkpt lat="43.48598" lon="6.61927">
        <ele>62.1</ele>
        <time>2024-10-28T10:09:39Z</time>
      </trkpt>
      <trkpt lat="43.48588" lon="6.61927">
        <ele>61</ele>
        <time>2024-10-28T10:10:22Z</time>
      </trkpt>
      <trkpt lat="43.48579" lon="6.61927">
        <ele>61.5</ele>
        <time>2024-10-28T10:11:37Z</time>
      </trkpt>
      <trkpt lat="43.4857" lon="6.61932">
        <ele>62.7</ele>
        <time>2024-10-28T10:11:54Z</time>
      </trkpt>
      <trkpt lat="43.48562" lon="6.61939">
        <ele>63.8</ele>
        <time>2024-10-28T10:12:11Z</time>
      </trkpt>
      <trkpt lat="43.48556" lon="6.61948">
        <ele>65.1</ele>
        <time>2024-10-28T10:12:25Z</time>
      </trkpt>
      <trkpt lat="43.48549" lon="6.61957">
        <ele>65.3</ele>
        <time>2024-10-28T10:12:36Z</time>
      </trkpt>
      <trkpt lat="43.48541" lon="6.61963">
        <ele>66</ele>
        <time>2024-10-28T10:12:47Z</time>
      </trkpt>
      <trkpt lat="43.48532" lon="6.61968">
        <ele>66.7</ele>
        <time>2024-10-28T10:13:01Z</time>
      </trkpt>
      <trkpt lat="43.48523" lon="6.6197">
        <ele>68.2</ele>
        <time>2024-10-28T10:13:14Z</time>
      </trkpt>
      <trkpt lat="43.48513" lon="6.61972">
        <ele>69.2</ele>
        <time>2024-10-28T10:13:26Z</time>
      </trkpt>
      <trkpt lat="43.48504" lon="6.61973">
        <ele>70.6</ele>
        <time>2024-10-28T10:13:40Z</time>
      </trkpt>
      <trkpt lat="43.48495" lon="6.61977">
        <ele>71.2</ele>
        <time>2024-10-28T10:13:52Z</time>
      </trkpt>
      <trkpt lat="43.48485" lon="6.61977">
        <ele>71.5</ele>
        <time>2024-10-28T10:14:01Z</time>
      </trkpt>
      <trkpt lat="43.48476" lon="6.61978">
        <ele>71.7</ele>
        <time>2024-10-28T10:14:10Z</time>
      </trkpt>
      <trkpt lat="43.48466" lon="6.61978">
        <ele>72.5</ele>
        <time>2024-10-28T10:14:23Z</time>
      </trkpt>
      <trkpt lat="43.48457" lon="6.61977">
        <ele>73.4</ele>
        <time>2024-10-28T10:14:35Z</time>
      </trkpt>
      <trkpt lat="43.48448" lon="6.61979">
        <ele>74.6</ele>
        <time>2024-10-28T10:14:46Z</time>
      </trkpt>
      <trkpt lat="43.48438" lon="6.61977">
        <ele>75.6</ele>
        <time>2024-10-28T10:14:57Z</time>
      </trkpt>
      <trkpt lat="43.48429" lon="6.61976">
        <ele>76.4</ele>
        <time>2024-10-28T10:15:10Z</time>
      </trkpt>
      <trkpt lat="43.4842" lon="6.61974">
        <ele>76.9</ele>
        <time>2024-10-28T10:15:21Z</time>
      </trkpt>
      <trkpt lat="43.48411" lon="6.61979">
        <ele>78</ele>
        <time>2024-10-28T10:15:49Z</time>
      </trkpt>
      <trkpt lat="43.48402" lon="6.61976">
        <ele>77.8</ele>
        <time>2024-10-28T10:17:34Z</time>
      </trkpt>
      <trkpt lat="43.48393" lon="6.61972">
        <ele>77.9</ele>
        <time>2024-10-28T10:17:46Z</time>
      </trkpt>
      <trkpt lat="43.48383" lon="6.6197">
        <ele>77.9</ele>
        <time>2024-10-28T10:17:56Z</time>
      </trkpt>
      <trkpt lat="43.48374" lon="6.61968">
        <ele>77.7</ele>
        <time>2024-10-28T10:18:06Z</time>
      </trkpt>
      <trkpt lat="43.48365" lon="6.61968">
        <ele>77.6</ele>
        <time>2024-10-28T10:18:17Z</time>
      </trkpt>
      <trkpt lat="43.48356" lon="6.6197">
        <ele>77.8</ele>
        <time>2024-10-28T10:18:25Z</time>
      </trkpt>
      <trkpt lat="43.48347" lon="6.61972">
        <ele>77.8</ele>
        <time>2024-10-28T10:18:34Z</time>
      </trkpt>
      <trkpt lat="43.48338" lon="6.61972">
        <ele>77.5</ele>
        <time>2024-10-28T10:18:43Z</time>
      </trkpt>
      <trkpt lat="43.48328" lon="6.61971">
        <ele>76.9</ele>
        <time>2024-10-28T10:18:53Z</time>
      </trkpt>
      <trkpt lat="43.48319" lon="6.61967">
        <ele>76.7</ele>
        <time>2024-10-28T10:19:03Z</time>
      </trkpt>
      <trkpt lat="43.4831" lon="6.61963">
        <ele>76.4</ele>
        <time>2024-10-28T10:19:13Z</time>
      </trkpt>
      <trkpt lat="43.48305" lon="6.61953">
        <ele>76.1</ele>
        <time>2024-10-28T10:19:30Z</time>
      </trkpt>
      <trkpt lat="43.48299" lon="6.61943">
        <ele>76</ele>
        <time>2024-10-28T10:19:41Z</time>
      </trkpt>
      <trkpt lat="43.48292" lon="6.61934">
        <ele>75.3</ele>
        <time>2024-10-28T10:19:51Z</time>
      </trkpt>
      <trkpt lat="43.48285" lon="6.61926">
        <ele>74.9</ele>
        <time>2024-10-28T10:20:01Z</time>
      </trkpt>
      <trkpt lat="43.48278" lon="6.61917">
        <ele>74.4</ele>
        <time>2024-10-28T10:20:12Z</time>
      </trkpt>
      <trkpt lat="43.48271" lon="6.61908">
        <ele>74</ele>
        <time>2024-10-28T10:20:23Z</time>
      </trkpt>
      <trkpt lat="43.48262" lon="6.61902">
        <ele>73.1</ele>
        <time>2024-10-28T10:20:35Z</time>
      </trkpt>
      <trkpt lat="43.48254" lon="6.61895">
        <ele>72.3</ele>
        <time>2024-10-28T10:20:46Z</time>
      </trkpt>
      <trkpt lat="43.48246" lon="6.6189">
        <ele>71.4</ele>
        <time>2024-10-28T10:20:57Z</time>
      </trkpt>
      <trkpt lat="43.48236" lon="6.61895">
        <ele>71.2</ele>
        <time>2024-10-28T10:21:08Z</time>
      </trkpt>
      <trkpt lat="43.4823" lon="6.61905">
        <ele>71.7</ele>
        <time>2024-10-28T10:21:20Z</time>
      </trkpt>
      <trkpt lat="43.48222" lon="6.61913">
        <ele>72.4</ele>
        <time>2024-10-28T10:22:10Z</time>
      </trkpt>
      <trkpt lat="43.48217" lon="6.61923">
        <ele>72.6</ele>
        <time>2024-10-28T10:22:20Z</time>
      </trkpt>
      <trkpt lat="43.48208" lon="6.61928">
        <ele>72.7</ele>
        <time>2024-10-28T10:22:32Z</time>
      </trkpt>
      <trkpt lat="43.482" lon="6.61934">
        <ele>73.3</ele>
        <time>2024-10-28T10:22:42Z</time>
      </trkpt>
      <trkpt lat="43.48192" lon="6.61942">
        <ele>73.7</ele>
        <time>2024-10-28T10:22:53Z</time>
      </trkpt>
      <trkpt lat="43.48187" lon="6.61953">
        <ele>73.7</ele>
        <time>2024-10-28T10:23:05Z</time>
      </trkpt>
      <trkpt lat="43.48182" lon="6.61963">
        <ele>74.1</ele>
        <time>2024-10-28T10:23:14Z</time>
      </trkpt>
      <trkpt lat="43.48176" lon="6.61974">
        <ele>74.3</ele>
        <time>2024-10-28T10:23:24Z</time>
      </trkpt>
      <trkpt lat="43.48169" lon="6.61982">
        <ele>74.3</ele>
        <time>2024-10-28T10:23:35Z</time>
      </trkpt>
      <trkpt lat="43.48162" lon="6.61991">
        <ele>74.5</ele>
        <time>2024-10-28T10:23:45Z</time>
      </trkpt>
      <trkpt lat="43.48156" lon="6.62002">
        <ele>74.7</ele>
        <time>2024-10-28T10:23:56Z</time>
      </trkpt>
      <trkpt lat="43.4815" lon="6.62012">
        <ele>75.1</ele>
        <time>2024-10-28T10:24:09Z</time>
      </trkpt>
      <trkpt lat="43.48143" lon="6.62021">
        <ele>75.7</ele>
        <time>2024-10-28T10:24:21Z</time>
      </trkpt>
      <trkpt lat="43.48135" lon="6.62028">
        <ele>76.6</ele>
        <time>2024-10-28T10:24:33Z</time>
      </trkpt>
      <trkpt lat="43.48129" lon="6.62038">
        <ele>77.1</ele>
        <time>2024-10-28T10:24:44Z</time>
      </trkpt>
      <trkpt lat="43.48124" lon="6.62049">
        <ele>77.5</ele>
        <time>2024-10-28T10:24:55Z</time>
      </trkpt>
      <trkpt lat="43.48118" lon="6.62059">
        <ele>78.3</ele>
        <time>2024-10-28T10:25:06Z</time>
      </trkpt>
      <trkpt lat="43.48112" lon="6.6207">
        <ele>79.1</ele>
        <time>2024-10-28T10:25:18Z</time>
      </trkpt>
      <trkpt lat="43.48107" lon="6.62081">
        <ele>80.1</ele>
        <time>2024-10-28T10:25:32Z</time>
      </trkpt>
      <trkpt lat="43.48099" lon="6.62088">
        <ele>81.3</ele>
        <time>2024-10-28T10:25:43Z</time>
      </trkpt>
      <trkpt lat="43.48091" lon="6.62093">
        <ele>82.1</ele>
        <time>2024-10-28T10:25:54Z</time>
      </trkpt>
      <trkpt lat="43.48082" lon="6.62097">
        <ele>82.9</ele>
        <time>2024-10-28T10:26:05Z</time>
      </trkpt>
      <trkpt lat="43.48073" lon="6.62098">
        <ele>83.5</ele>
        <time>2024-10-28T10:26:15Z</time>
      </trkpt>
      <trkpt lat="43.48064" lon="6.62101">
        <ele>84.1</ele>
        <time>2024-10-28T10:26:28Z</time>
      </trkpt>
      <trkpt lat="43.48055" lon="6.62104">
        <ele>84.9</ele>
        <time>2024-10-28T10:26:44Z</time>
      </trkpt>
      <trkpt lat="43.48047" lon="6.62109">
        <ele>85.4</ele>
        <time>2024-10-28T10:26:57Z</time>
      </trkpt>
      <trkpt lat="43.48037" lon="6.62111">
        <ele>85.7</ele>
        <time>2024-10-28T10:27:37Z</time>
      </trkpt>
      <trkpt lat="43.48028" lon="6.62115">
        <ele>85.5</ele>
        <time>2024-10-28T10:28:25Z</time>
      </trkpt>
      <trkpt lat="43.48019" lon="6.62116">
        <ele>85.4</ele>
        <time>2024-10-28T10:28:38Z</time>
      </trkpt>
      <trkpt lat="43.4801" lon="6.62118">
        <ele>85.6</ele>
        <time>2024-10-28T10:28:53Z</time>
      </trkpt>
      <trkpt lat="43.48" lon="6.62117">
        <ele>85.5</ele>
        <time>2024-10-28T10:29:03Z</time>
      </trkpt>
      <trkpt lat="43.4799" lon="6.62115">
        <ele>85.2</ele>
        <time>2024-10-28T10:29:13Z</time>
      </trkpt>
      <trkpt lat="43.47981" lon="6.62116">
        <ele>85</ele>
        <time>2024-10-28T10:29:24Z</time>
      </trkpt>
      <trkpt lat="43.47972" lon="6.62115">
        <ele>84.3</ele>
        <time>2024-10-28T10:29:38Z</time>
      </trkpt>
      <trkpt lat="43.47962" lon="6.6211">
        <ele>83.7</ele>
        <time>2024-10-28T10:29:50Z</time>
      </trkpt>
      <trkpt lat="43.47954" lon="6.62103">
        <ele>83.3</ele>
        <time>2024-10-28T10:30:00Z</time>
      </trkpt>
      <trkpt lat="43.47946" lon="6.62099">
        <ele>83.1</ele>
        <time>2024-10-28T10:30:09Z</time>
      </trkpt>
      <trkpt lat="43.47937" lon="6.62096">
        <ele>82.8</ele>
        <time>2024-10-28T10:30:18Z</time>
      </trkpt>
      <trkpt lat="43.47928" lon="6.62094">
        <ele>82.2</ele>
        <time>2024-10-28T10:30:28Z</time>
      </trkpt>
      <trkpt lat="43.47919" lon="6.62091">
        <ele>81.4</ele>
        <time>2024-10-28T10:30:39Z</time>
      </trkpt>
      <trkpt lat="43.4791" lon="6.62086">
        <ele>80.5</ele>
        <time>2024-10-28T10:30:52Z</time>
      </trkpt>
      <trkpt lat="43.47901" lon="6.62082">
        <ele>79.6</ele>
        <time>2024-10-28T10:31:04Z</time>
      </trkpt>
      <trkpt lat="43.47891" lon="6.62079">
        <ele>78.6</ele>
        <time>2024-10-28T10:31:16Z</time>
      </trkpt>
      <trkpt lat="43.47882" lon="6.62074">
        <ele>77.7</ele>
        <time>2024-10-28T10:31:29Z</time>
      </trkpt>
      <trkpt lat="43.47873" lon="6.6207">
        <ele>76.7</ele>
        <time>2024-10-28T10:31:41Z</time>
      </trkpt>
      <trkpt lat="43.47865" lon="6.62066">
        <ele>75.3</ele>
        <time>2024-10-28T10:31:52Z</time>
      </trkpt>
      <trkpt lat="43.47855" lon="6.62063">
        <ele>74.1</ele>
        <time>2024-10-28T10:32:04Z</time>
      </trkpt>
      <trkpt lat="43.47846" lon="6.62059">
        <ele>73.9</ele>
        <time>2024-10-28T10:32:14Z</time>
      </trkpt>
      <trkpt lat="43.47836" lon="6.6206">
        <ele>73.6</ele>
        <time>2024-10-28T10:32:25Z</time>
      </trkpt>
      <trkpt lat="43.47828" lon="6.62062">
        <ele>74.2</ele>
        <time>2024-10-28T10:32:36Z</time>
      </trkpt>
      <trkpt lat="43.47818" lon="6.62062">
        <ele>75</ele>
        <time>2024-10-28T10:32:47Z</time>
      </trkpt>
      <trkpt lat="43.47809" lon="6.62062">
        <ele>75.8</ele>
        <time>2024-10-28T10:32:58Z</time>
      </trkpt>
      <trkpt lat="43.47799" lon="6.62062">
        <ele>76.3</ele>
        <time>2024-10-28T10:33:08Z</time>
      </trkpt>
      <trkpt lat="43.4779" lon="6.62061">
        <ele>76.7</ele>
        <time>2024-10-28T10:33:18Z</time>
      </trkpt>
      <trkpt lat="43.4778" lon="6.62062">
        <ele>77</ele>
        <time>2024-10-28T10:33:28Z</time>
      </trkpt>
      <trkpt lat="43.47771" lon="6.62066">
        <ele>77</ele>
        <time>2024-10-28T10:33:48Z</time>
      </trkpt>
      <trkpt lat="43.47762" lon="6.62061">
        <ele>76.8</ele>
        <time>2024-10-28T10:34:00Z</time>
      </trkpt>
      <trkpt lat="43.47752" lon="6.62059">
        <ele>76.6</ele>
        <time>2024-10-28T10:34:10Z</time>
      </trkpt>
      <trkpt lat="43.47743" lon="6.62055">
        <ele>76.5</ele>
        <time>2024-10-28T10:34:19Z</time>
      </trkpt>
      <trkpt lat="43.47735" lon="6.62049">
        <ele>76.2</ele>
        <time>2024-10-28T10:34:29Z</time>
      </trkpt>
      <trkpt lat="43.47726" lon="6.62042">
        <ele>75.8</ele>
        <time>2024-10-28T10:34:41Z</time>
      </trkpt>
      <trkpt lat="43.47718" lon="6.62036">
        <ele>75.6</ele>
        <time>2024-10-28T10:34:51Z</time>
      </trkpt>
      <trkpt lat="43.47711" lon="6.62027">
        <ele>75.2</ele>
        <time>2024-10-28T10:35:01Z</time>
      </trkpt>
      <trkpt lat="43.47704" lon="6.62018">
        <ele>74.4</ele>
        <time>2024-10-28T10:35:11Z</time>
      </trkpt>
      <trkpt lat="43.47696" lon="6.6201">
        <ele>73.5</ele>
        <time>2024-10-28T10:35:22Z</time>
      </trkpt>
      <trkpt lat="43.4769" lon="6.62001">
        <ele>72.5</ele>
        <time>2024-10-28T10:35:34Z</time>
      </trkpt>
      <trkpt lat="43.47683" lon="6.61992">
        <ele>71.5</ele>
        <time>2024-10-28T10:35:44Z</time>
      </trkpt>
      <trkpt lat="43.47679" lon="6.61981">
        <ele>70.4</ele>
        <time>2024-10-28T10:35:55Z</time>
      </trkpt>
      <trkpt lat="43.47673" lon="6.61971">
        <ele>69.4</ele>
        <time>2024-10-28T10:36:06Z</time>
      </trkpt>
      <trkpt lat="43.47666" lon="6.61963">
        <ele>68.6</ele>
        <time>2024-10-28T10:36:22Z</time>
      </trkpt>
      <trkpt lat="43.47658" lon="6.61958">
        <ele>68.5</ele>
        <time>2024-10-28T10:37:16Z</time>
      </trkpt>
      <trkpt lat="43.47649" lon="6.61963">
        <ele>69.4</ele>
        <time>2024-10-28T10:37:34Z</time>
      </trkpt>
      <trkpt lat="43.4764" lon="6.61967">
        <ele>70.5</ele>
        <time>2024-10-28T10:37:47Z</time>
      </trkpt>
      <trkpt lat="43.47631" lon="6.6197">
        <ele>71.2</ele>
        <time>2024-10-28T10:38:09Z</time>
      </trkpt>
      <trkpt lat="43.47622" lon="6.6197">
        <ele>71.9</ele>
        <time>2024-10-28T10:38:21Z</time>
      </trkpt>
      <trkpt lat="43.47612" lon="6.61971">
        <ele>72.5</ele>
        <time>2024-10-28T10:38:31Z</time>
      </trkpt>
      <trkpt lat="43.47602" lon="6.61969">
        <ele>73.3</ele>
        <time>2024-10-28T10:38:42Z</time>
      </trkpt>
      <trkpt lat="43.47593" lon="6.61968">
        <ele>73.7</ele>
        <time>2024-10-28T10:38:53Z</time>
      </trkpt>
      <trkpt lat="43.47584" lon="6.61965">
        <ele>73.5</ele>
        <time>2024-10-28T10:39:08Z</time>
      </trkpt>
      <trkpt lat="43.47575" lon="6.6196">
        <ele>72.9</ele>
        <time>2024-10-28T10:39:19Z</time>
      </trkpt>
      <trkpt lat="43.47565" lon="6.61959">
        <ele>72.5</ele>
        <time>2024-10-28T10:39:34Z</time>
      </trkpt>
      <trkpt lat="43.47556" lon="6.6196">
        <ele>72.7</ele>
        <time>2024-10-28T10:39:46Z</time>
      </trkpt>
      <trkpt lat="43.47547" lon="6.61958">
        <ele>73.3</ele>
        <time>2024-10-28T10:39:59Z</time>
      </trkpt>
      <trkpt lat="43.47538" lon="6.61957">
        <ele>73.9</ele>
        <time>2024-10-28T10:40:17Z</time>
      </trkpt>
      <trkpt lat="43.47529" lon="6.61955">
        <ele>74.9</ele>
        <time>2024-10-28T10:40:31Z</time>
      </trkpt>
      <trkpt lat="43.4752" lon="6.6195">
        <ele>75.3</ele>
        <time>2024-10-28T10:40:42Z</time>
      </trkpt>
      <trkpt lat="43.47511" lon="6.61945">
        <ele>75.4</ele>
        <time>2024-10-28T10:40:55Z</time>
      </trkpt>
      <trkpt lat="43.47502" lon="6.61943">
        <ele>75.5</ele>
        <time>2024-10-28T10:41:08Z</time>
      </trkpt>
      <trkpt lat="43.47493" lon="6.6194">
        <ele>75.7</ele>
        <time>2024-10-28T10:41:26Z</time>
      </trkpt>
      <trkpt lat="43.47483" lon="6.61937">
        <ele>75.9</ele>
        <time>2024-10-28T10:41:37Z</time>
      </trkpt>
      <trkpt lat="43.47474" lon="6.61933">
        <ele>75.5</ele>
        <time>2024-10-28T10:41:47Z</time>
      </trkpt>
      <trkpt lat="43.47465" lon="6.61929">
        <ele>74.9</ele>
        <time>2024-10-28T10:41:58Z</time>
      </trkpt>
      <trkpt lat="43.47456" lon="6.61925">
        <ele>74.8</ele>
        <time>2024-10-28T10:42:11Z</time>
      </trkpt>
      <trkpt lat="43.47448" lon="6.6192">
        <ele>74.5</ele>
        <time>2024-10-28T10:42:51Z</time>
      </trkpt>
      <trkpt lat="43.47439" lon="6.61919">
        <ele>74.9</ele>
        <time>2024-10-28T10:46:19Z</time>
      </trkpt>
      <trkpt lat="43.47429" lon="6.61915">
        <ele>74.5</ele>
        <time>2024-10-28T10:46:30Z</time>
      </trkpt>
      <trkpt lat="43.4742" lon="6.61913">
        <ele>74</ele>
        <time>2024-10-28T10:46:41Z</time>
      </trkpt>
      <trkpt lat="43.47411" lon="6.6191">
        <ele>73</ele>
        <time>2024-10-28T10:46:52Z</time>
      </trkpt>
      <trkpt lat="43.47403" lon="6.61905">
        <ele>72.2</ele>
        <time>2024-10-28T10:47:03Z</time>
      </trkpt>
      <trkpt lat="43.47394" lon="6.61901">
        <ele>70.8</ele>
        <time>2024-10-28T10:47:39Z</time>
      </trkpt>
      <trkpt lat="43.47385" lon="6.61896">
        <ele>69.9</ele>
        <time>2024-10-28T10:47:51Z</time>
      </trkpt>
      <trkpt lat="43.47377" lon="6.61891">
        <ele>69.4</ele>
        <time>2024-10-28T10:48:29Z</time>
      </trkpt>
      <trkpt lat="43.47367" lon="6.61889">
        <ele>68.7</ele>
        <time>2024-10-28T10:48:39Z</time>
      </trkpt>
      <trkpt lat="43.47358" lon="6.61884">
        <ele>67.8</ele>
        <time>2024-10-28T10:48:51Z</time>
      </trkpt>
      <trkpt lat="43.47351" lon="6.61877">
        <ele>67.2</ele>
        <time>2024-10-28T10:49:02Z</time>
      </trkpt>
      <trkpt lat="43.47342" lon="6.61873">
        <ele>66.5</ele>
        <time>2024-10-28T10:49:15Z</time>
      </trkpt>
      <trkpt lat="43.47335" lon="6.61863">
        <ele>66.3</ele>
        <time>2024-10-28T10:49:26Z</time>
      </trkpt>
      <trkpt lat="43.47332" lon="6.61851">
        <ele>66.3</ele>
        <time>2024-10-28T10:49:39Z</time>
      </trkpt>
      <trkpt lat="43.47334" lon="6.61838">
        <ele>66.7</ele>
        <time>2024-10-28T10:49:52Z</time>
      </trkpt>
      <trkpt lat="43.47336" lon="6.61826">
        <ele>67.4</ele>
        <time>2024-10-28T10:50:03Z</time>
      </trkpt>
      <trkpt lat="43.47341" lon="6.61814">
        <ele>67.9</ele>
        <time>2024-10-28T10:50:14Z</time>
      </trkpt>
      <trkpt lat="43.47345" lon="6.61803">
        <ele>68.4</ele>
        <time>2024-10-28T10:50:33Z</time>
      </trkpt>
      <trkpt lat="43.47346" lon="6.6179">
        <ele>68.5</ele>
        <time>2024-10-28T10:50:59Z</time>
      </trkpt>
      <trkpt lat="43.4735" lon="6.61779">
        <ele>68.5</ele>
        <time>2024-10-28T10:51:09Z</time>
      </trkpt>
      <trkpt lat="43.47352" lon="6.61766">
        <ele>68.6</ele>
        <time>2024-10-28T10:51:19Z</time>
      </trkpt>
      <trkpt lat="43.47356" lon="6.61754">
        <ele>68.4</ele>
        <time>2024-10-28T10:51:30Z</time>
      </trkpt>
      <trkpt lat="43.47359" lon="6.61743">
        <ele>68.1</ele>
        <time>2024-10-28T10:51:44Z</time>
      </trkpt>
      <trkpt lat="43.47364" lon="6.61731">
        <ele>68.1</ele>
        <time>2024-10-28T10:51:57Z</time>
      </trkpt>
      <trkpt lat="43.47365" lon="6.61718">
        <ele>68.1</ele>
        <time>2024-10-28T10:52:12Z</time>
      </trkpt>
      <trkpt lat="43.47368" lon="6.61705">
        <ele>68.2</ele>
        <time>2024-10-28T10:52:23Z</time>
      </trkpt>
      <trkpt lat="43.47372" lon="6.61695">
        <ele>68.5</ele>
        <time>2024-10-28T10:52:33Z</time>
      </trkpt>
      <trkpt lat="43.47377" lon="6.61683">
        <ele>68.6</ele>
        <time>2024-10-28T10:52:44Z</time>
      </trkpt>
      <trkpt lat="43.4738" lon="6.61671">
        <ele>68.9</ele>
        <time>2024-10-28T10:52:56Z</time>
      </trkpt>
      <trkpt lat="43.47384" lon="6.6166">
        <ele>69.6</ele>
        <time>2024-10-28T10:53:12Z</time>
      </trkpt>
      <trkpt lat="43.47387" lon="6.61648">
        <ele>70.3</ele>
        <time>2024-10-28T10:53:25Z</time>
      </trkpt>
      <trkpt lat="43.47392" lon="6.61637">
        <ele>71.4</ele>
        <time>2024-10-28T10:53:45Z</time>
      </trkpt>
      <trkpt lat="43.47395" lon="6.61625">
        <ele>71.6</ele>
        <time>2024-10-28T10:53:57Z</time>
      </trkpt>
      <trkpt lat="43.47397" lon="6.61612">
        <ele>72.1</ele>
        <time>2024-10-28T10:54:08Z</time>
      </trkpt>
      <trkpt lat="43.47398" lon="6.616">
        <ele>72.7</ele>
        <time>2024-10-28T10:54:19Z</time>
      </trkpt>
      <trkpt lat="43.47402" lon="6.61588">
        <ele>73</ele>
        <time>2024-10-28T10:54:30Z</time>
      </trkpt>
      <trkpt lat="43.47406" lon="6.61576">
        <ele>73.4</ele>
        <time>2024-10-28T10:54:42Z</time>
      </trkpt>
      <trkpt lat="43.4741" lon="6.61563">
        <ele>73.6</ele>
        <time>2024-10-28T10:54:54Z</time>
      </trkpt>
      <trkpt lat="43.47413" lon="6.61552">
        <ele>73.7</ele>
        <time>2024-10-28T10:55:26Z</time>
      </trkpt>
      <trkpt lat="43.47418" lon="6.61541">
        <ele>73.7</ele>
        <time>2024-10-28T10:55:37Z</time>
      </trkpt>
      <trkpt lat="43.47421" lon="6.61529">
        <ele>73.8</ele>
        <time>2024-10-28T10:55:48Z</time>
      </trkpt>
      <trkpt lat="43.47426" lon="6.61518">
        <ele>74</ele>
        <time>2024-10-28T10:56:00Z</time>
      </trkpt>
      <trkpt lat="43.47427" lon="6.61505">
        <ele>74.3</ele>
        <time>2024-10-28T10:56:19Z</time>
      </trkpt>
      <trkpt lat="43.47428" lon="6.61493">
        <ele>73.1</ele>
        <time>2024-10-28T10:57:15Z</time>
      </trkpt>
      <trkpt lat="43.47422" lon="6.61502">
        <ele>78.1</ele>
        <time>2024-10-28T11:59:15Z</time>
      </trkpt>
      <trkpt lat="43.47431" lon="6.61503">
        <ele>78.3</ele>
        <time>2024-10-28T11:59:56Z</time>
      </trkpt>
      <trkpt lat="43.47434" lon="6.61491">
        <ele>78.5</ele>
        <time>2024-10-28T12:06:23Z</time>
      </trkpt>
      <trkpt lat="43.47442" lon="6.61485">
        <ele>78.8</ele>
        <time>2024-10-28T12:06:36Z</time>
      </trkpt>
      <trkpt lat="43.47449" lon="6.61476">
        <ele>79</ele>
        <time>2024-10-28T12:06:54Z</time>
      </trkpt>
      <trkpt lat="43.47456" lon="6.61468">
        <ele>79.6</ele>
        <time>2024-10-28T12:07:37Z</time>
      </trkpt>
      <trkpt lat="43.47456" lon="6.61455">
        <ele>79.6</ele>
        <time>2024-10-28T12:07:47Z</time>
      </trkpt>
      <trkpt lat="43.47459" lon="6.61443">
        <ele>79.4</ele>
        <time>2024-10-28T12:07:58Z</time>
      </trkpt>
      <trkpt lat="43.47463" lon="6.61432">
        <ele>79.3</ele>
        <time>2024-10-28T12:08:14Z</time>
      </trkpt>
      <trkpt lat="43.47468" lon="6.6142">
        <ele>79.1</ele>
        <time>2024-10-28T12:08:24Z</time>
      </trkpt>
      <trkpt lat="43.4747" lon="6.61408">
        <ele>78.9</ele>
        <time>2024-10-28T12:08:37Z</time>
      </trkpt>
      <trkpt lat="43.47464" lon="6.61398">
        <ele>78.4</ele>
        <time>2024-10-28T12:08:50Z</time>
      </trkpt>
      <trkpt lat="43.47458" lon="6.61389">
        <ele>77.8</ele>
        <time>2024-10-28T12:09:04Z</time>
      </trkpt>
      <trkpt lat="43.47458" lon="6.61376">
        <ele>77.4</ele>
        <time>2024-10-28T12:09:17Z</time>
      </trkpt>
      <trkpt lat="43.4746" lon="6.61364">
        <ele>77.2</ele>
        <time>2024-10-28T12:09:31Z</time>
      </trkpt>
      <trkpt lat="43.47455" lon="6.61352">
        <ele>76.7</ele>
        <time>2024-10-28T12:09:51Z</time>
      </trkpt>
      <trkpt lat="43.47446" lon="6.61347">
        <ele>76.4</ele>
        <time>2024-10-28T12:10:38Z</time>
      </trkpt>
      <trkpt lat="43.47441" lon="6.61337">
        <ele>76</ele>
        <time>2024-10-28T12:10:54Z</time>
      </trkpt>
      <trkpt lat="43.47436" lon="6.61326">
        <ele>75.6</ele>
        <time>2024-10-28T12:11:13Z</time>
      </trkpt>
      <trkpt lat="43.47434" lon="6.61314">
        <ele>75.8</ele>
        <time>2024-10-28T12:11:57Z</time>
      </trkpt>
      <trkpt lat="43.4744" lon="6.61304">
        <ele>76.5</ele>
        <time>2024-10-28T12:12:14Z</time>
      </trkpt>
      <trkpt lat="43.47448" lon="6.61296">
        <ele>76.8</ele>
        <time>2024-10-28T12:12:27Z</time>
      </trkpt>
      <trkpt lat="43.47457" lon="6.61293">
        <ele>77.1</ele>
        <time>2024-10-28T12:12:39Z</time>
      </trkpt>
      <trkpt lat="43.47464" lon="6.61284">
        <ele>77.3</ele>
        <time>2024-10-28T12:13:01Z</time>
      </trkpt>
      <trkpt lat="43.47471" lon="6.61275">
        <ele>77.6</ele>
        <time>2024-10-28T12:13:16Z</time>
      </trkpt>
      <trkpt lat="43.47474" lon="6.61263">
        <ele>78.2</ele>
        <time>2024-10-28T12:13:29Z</time>
      </trkpt>
      <trkpt lat="43.4748" lon="6.61253">
        <ele>78.5</ele>
        <time>2024-10-28T12:13:40Z</time>
      </trkpt>
      <trkpt lat="43.47483" lon="6.6124">
        <ele>78.6</ele>
        <time>2024-10-28T12:13:53Z</time>
      </trkpt>
      <trkpt lat="43.47489" lon="6.61231">
        <ele>78.7</ele>
        <time>2024-10-28T12:14:04Z</time>
      </trkpt>
      <trkpt lat="43.47494" lon="6.6122">
        <ele>78.7</ele>
        <time>2024-10-28T12:14:15Z</time>
      </trkpt>
      <trkpt lat="43.47499" lon="6.61209">
        <ele>78.9</ele>
        <time>2024-10-28T12:14:25Z</time>
      </trkpt>
      <trkpt lat="43.47503" lon="6.61198">
        <ele>79</ele>
        <time>2024-10-28T12:14:35Z</time>
      </trkpt>
      <trkpt lat="43.47504" lon="6.61186">
        <ele>79.4</ele>
        <time>2024-10-28T12:14:46Z</time>
      </trkpt>
      <trkpt lat="43.4751" lon="6.61176">
        <ele>80.2</ele>
        <time>2024-10-28T12:15:12Z</time>
      </trkpt>
      <trkpt lat="43.47511" lon="6.61163">
        <ele>80.6</ele>
        <time>2024-10-28T12:15:23Z</time>
      </trkpt>
      <trkpt lat="43.47516" lon="6.61152">
        <ele>80.7</ele>
        <time>2024-10-28T12:15:34Z</time>
      </trkpt>
      <trkpt lat="43.47522" lon="6.61141">
        <ele>80.6</ele>
        <time>2024-10-28T12:15:44Z</time>
      </trkpt>
      <trkpt lat="43.47524" lon="6.61129">
        <ele>80.4</ele>
        <time>2024-10-28T12:15:53Z</time>
      </trkpt>
      <trkpt lat="43.47529" lon="6.61118">
        <ele>79.8</ele>
        <time>2024-10-28T12:16:14Z</time>
      </trkpt>
      <trkpt lat="43.47534" lon="6.61106">
        <ele>79.8</ele>
        <time>2024-10-28T12:16:24Z</time>
      </trkpt>
      <trkpt lat="43.47539" lon="6.61095">
        <ele>79.4</ele>
        <time>2024-10-28T12:16:35Z</time>
      </trkpt>
      <trkpt lat="43.47544" lon="6.61083">
        <ele>79</ele>
        <time>2024-10-28T12:16:48Z</time>
      </trkpt>
      <trkpt lat="43.47549" lon="6.61072">
        <ele>78.3</ele>
        <time>2024-10-28T12:17:08Z</time>
      </trkpt>
      <trkpt lat="43.47554" lon="6.6106">
        <ele>77.6</ele>
        <time>2024-10-28T12:17:19Z</time>
      </trkpt>
      <trkpt lat="43.47561" lon="6.61051">
        <ele>76.8</ele>
        <time>2024-10-28T12:17:33Z</time>
      </trkpt>
      <trkpt lat="43.47568" lon="6.61044">
        <ele>76.2</ele>
        <time>2024-10-28T12:17:43Z</time>
      </trkpt>
      <trkpt lat="43.47576" lon="6.61038">
        <ele>76</ele>
        <time>2024-10-28T12:18:10Z</time>
      </trkpt>
      <trkpt lat="43.47583" lon="6.61028">
        <ele>76.2</ele>
        <time>2024-10-28T12:18:32Z</time>
      </trkpt>
      <trkpt lat="43.47591" lon="6.61022">
        <ele>76.4</ele>
        <time>2024-10-28T12:18:48Z</time>
      </trkpt>
      <trkpt lat="43.476" lon="6.61017">
        <ele>76.6</ele>
        <time>2024-10-28T12:18:57Z</time>
      </trkpt>
      <trkpt lat="43.47607" lon="6.61009">
        <ele>76.6</ele>
        <time>2024-10-28T12:19:07Z</time>
      </trkpt>
      <trkpt lat="43.47614" lon="6.61">
        <ele>76.7</ele>
        <time>2024-10-28T12:19:18Z</time>
      </trkpt>
      <trkpt lat="43.47622" lon="6.60995">
        <ele>76.4</ele>
        <time>2024-10-28T12:19:42Z</time>
      </trkpt>
      <trkpt lat="43.4763" lon="6.60989">
        <ele>76.5</ele>
        <time>2024-10-28T12:19:54Z</time>
      </trkpt>
      <trkpt lat="43.47638" lon="6.60982">
        <ele>77</ele>
        <time>2024-10-28T12:20:07Z</time>
      </trkpt>
      <trkpt lat="43.47645" lon="6.60974">
        <ele>77.9</ele>
        <time>2024-10-28T12:20:26Z</time>
      </trkpt>
      <trkpt lat="43.47653" lon="6.60967">
        <ele>79.7</ele>
        <time>2024-10-28T12:20:46Z</time>
      </trkpt>
      <trkpt lat="43.47662" lon="6.60961">
        <ele>80.9</ele>
        <time>2024-10-28T12:20:58Z</time>
      </trkpt>
      <trkpt lat="43.47669" lon="6.60953">
        <ele>82</ele>
        <time>2024-10-28T12:21:11Z</time>
      </trkpt>
      <trkpt lat="43.47677" lon="6.60946">
        <ele>82.7</ele>
        <time>2024-10-28T12:21:22Z</time>
      </trkpt>
      <trkpt lat="43.47685" lon="6.60938">
        <ele>83</ele>
        <time>2024-10-28T12:21:33Z</time>
      </trkpt>
      <trkpt lat="43.4769" lon="6.60926">
        <ele>83.2</ele>
        <time>2024-10-28T12:21:47Z</time>
      </trkpt>
      <trkpt lat="43.47697" lon="6.60916">
        <ele>83.2</ele>
        <time>2024-10-28T12:21:56Z</time>
      </trkpt>
      <trkpt lat="43.47703" lon="6.60907">
        <ele>83.1</ele>
        <time>2024-10-28T12:22:06Z</time>
      </trkpt>
      <trkpt lat="43.47708" lon="6.60896">
        <ele>82.6</ele>
        <time>2024-10-28T12:22:18Z</time>
      </trkpt>
      <trkpt lat="43.47714" lon="6.60886">
        <ele>82.3</ele>
        <time>2024-10-28T12:22:31Z</time>
      </trkpt>
      <trkpt lat="43.47718" lon="6.60875">
        <ele>82.2</ele>
        <time>2024-10-28T12:22:44Z</time>
      </trkpt>
      <trkpt lat="43.47724" lon="6.60865">
        <ele>82.1</ele>
        <time>2024-10-28T12:23:09Z</time>
      </trkpt>
      <trkpt lat="43.47731" lon="6.60855">
        <ele>82.3</ele>
        <time>2024-10-28T12:23:21Z</time>
      </trkpt>
      <trkpt lat="43.47736" lon="6.60845">
        <ele>82.2</ele>
        <time>2024-10-28T12:23:34Z</time>
      </trkpt>
      <trkpt lat="43.47743" lon="6.60835">
        <ele>82.4</ele>
        <time>2024-10-28T12:23:46Z</time>
      </trkpt>
      <trkpt lat="43.47749" lon="6.60824">
        <ele>82.8</ele>
        <time>2024-10-28T12:23:57Z</time>
      </trkpt>
      <trkpt lat="43.47754" lon="6.60814">
        <ele>82.7</ele>
        <time>2024-10-28T12:24:10Z</time>
      </trkpt>
      <trkpt lat="43.47761" lon="6.60804">
        <ele>82.5</ele>
        <time>2024-10-28T12:24:23Z</time>
      </trkpt>
      <trkpt lat="43.47764" lon="6.60792">
        <ele>81.8</ele>
        <time>2024-10-28T12:24:36Z</time>
      </trkpt>
      <trkpt lat="43.4777" lon="6.60782">
        <ele>81.7</ele>
        <time>2024-10-28T12:24:46Z</time>
      </trkpt>
      <trkpt lat="43.47773" lon="6.6077">
        <ele>81.4</ele>
        <time>2024-10-28T12:24:57Z</time>
      </trkpt>
      <trkpt lat="43.47779" lon="6.60759">
        <ele>81.1</ele>
        <time>2024-10-28T12:25:08Z</time>
      </trkpt>
      <trkpt lat="43.47784" lon="6.60749">
        <ele>80.5</ele>
        <time>2024-10-28T12:25:20Z</time>
      </trkpt>
      <trkpt lat="43.47788" lon="6.60737">
        <ele>80.2</ele>
        <time>2024-10-28T12:25:34Z</time>
      </trkpt>
      <trkpt lat="43.47794" lon="6.60728">
        <ele>80.1</ele>
        <time>2024-10-28T12:25:45Z</time>
      </trkpt>
      <trkpt lat="43.478" lon="6.60718">
        <ele>79.7</ele>
        <time>2024-10-28T12:26:00Z</time>
      </trkpt>
      <trkpt lat="43.47807" lon="6.60708">
        <ele>79.4</ele>
        <time>2024-10-28T12:26:16Z</time>
      </trkpt>
      <trkpt lat="43.47813" lon="6.60699">
        <ele>79.1</ele>
        <time>2024-10-28T12:26:34Z</time>
      </trkpt>
      <trkpt lat="43.47821" lon="6.60691">
        <ele>78.4</ele>
        <time>2024-10-28T12:26:47Z</time>
      </trkpt>
      <trkpt lat="43.47828" lon="6.60683">
        <ele>78.1</ele>
        <time>2024-10-28T12:26:58Z</time>
      </trkpt>
      <trkpt lat="43.47835" lon="6.60675">
        <ele>77.8</ele>
        <time>2024-10-28T12:27:09Z</time>
      </trkpt>
      <trkpt lat="43.47843" lon="6.60667">
        <ele>77.8</ele>
        <time>2024-10-28T12:27:19Z</time>
      </trkpt>
      <trkpt lat="43.4785" lon="6.60659">
        <ele>77.5</ele>
        <time>2024-10-28T12:27:35Z</time>
      </trkpt>
      <trkpt lat="43.47858" lon="6.60651">
        <ele>76.9</ele>
        <time>2024-10-28T12:27:50Z</time>
      </trkpt>
      <trkpt lat="43.47865" lon="6.60645">
        <ele>75.6</ele>
        <time>2024-10-28T12:28:07Z</time>
      </trkpt>
      <trkpt lat="43.47871" lon="6.60635">
        <ele>75.5</ele>
        <time>2024-10-28T12:28:21Z</time>
      </trkpt>
      <trkpt lat="43.4788" lon="6.6063">
        <ele>75</ele>
        <time>2024-10-28T12:28:31Z</time>
      </trkpt>
      <trkpt lat="43.47889" lon="6.60625">
        <ele>74.5</ele>
        <time>2024-10-28T12:28:41Z</time>
      </trkpt>
      <trkpt lat="43.47896" lon="6.60618">
        <ele>74.1</ele>
        <time>2024-10-28T12:28:52Z</time>
      </trkpt>
      <trkpt lat="43.47902" lon="6.60608">
        <ele>73</ele>
        <time>2024-10-28T12:29:25Z</time>
      </trkpt>
      <trkpt lat="43.47909" lon="6.606">
        <ele>71.2</ele>
        <time>2024-10-28T12:29:50Z</time>
      </trkpt>
      <trkpt lat="43.47917" lon="6.60593">
        <ele>70.5</ele>
        <time>2024-10-28T12:30:19Z</time>
      </trkpt>
      <trkpt lat="43.47923" lon="6.60583">
        <ele>68.4</ele>
        <time>2024-10-28T12:32:31Z</time>
      </trkpt>
      <trkpt lat="43.47929" lon="6.60574">
        <ele>67.3</ele>
        <time>2024-10-28T12:33:03Z</time>
      </trkpt>
      <trkpt lat="43.47934" lon="6.60564">
        <ele>65.4</ele>
        <time>2024-10-28T12:33:47Z</time>
      </trkpt>
      <trkpt lat="43.47941" lon="6.60555">
        <ele>64</ele>
        <time>2024-10-28T12:34:25Z</time>
      </trkpt>
      <trkpt lat="43.47947" lon="6.60546">
        <ele>63.6</ele>
        <time>2024-10-28T12:34:42Z</time>
      </trkpt>
      <trkpt lat="43.47953" lon="6.60536">
        <ele>63.6</ele>
        <time>2024-10-28T12:35:03Z</time>
      </trkpt>
      <trkpt lat="43.4796" lon="6.60528">
        <ele>64.4</ele>
        <time>2024-10-28T12:35:21Z</time>
      </trkpt>
      <trkpt lat="43.47965" lon="6.60518">
        <ele>66</ele>
        <time>2024-10-28T12:35:36Z</time>
      </trkpt>
      <trkpt lat="43.47973" lon="6.6051">
        <ele>67.6</ele>
        <time>2024-10-28T12:35:53Z</time>
      </trkpt>
      <trkpt lat="43.47976" lon="6.60498">
        <ele>69</ele>
        <time>2024-10-28T12:37:04Z</time>
      </trkpt>
      <trkpt lat="43.47984" lon="6.60488">
        <ele>69.4</ele>
        <time>2024-10-28T12:37:15Z</time>
      </trkpt>
      <trkpt lat="43.4799" lon="6.6048">
        <ele>69.7</ele>
        <time>2024-10-28T12:37:25Z</time>
      </trkpt>
      <trkpt lat="43.47999" lon="6.60475">
        <ele>69.4</ele>
        <time>2024-10-28T12:37:36Z</time>
      </trkpt>
      <trkpt lat="43.48003" lon="6.60463">
        <ele>68.1</ele>
        <time>2024-10-28T12:37:56Z</time>
      </trkpt>
      <trkpt lat="43.48009" lon="6.60453">
        <ele>66.3</ele>
        <time>2024-10-28T12:38:22Z</time>
      </trkpt>
      <trkpt lat="43.48014" lon="6.60443">
        <ele>65.7</ele>
        <time>2024-10-28T12:38:38Z</time>
      </trkpt>
      <trkpt lat="43.48016" lon="6.60431">
        <ele>66.5</ele>
        <time>2024-10-28T12:38:53Z</time>
      </trkpt>
      <trkpt lat="43.4802" lon="6.6042">
        <ele>67.6</ele>
        <time>2024-10-28T12:39:05Z</time>
      </trkpt>
      <trkpt lat="43.48024" lon="6.60408">
        <ele>68.5</ele>
        <time>2024-10-28T12:39:17Z</time>
      </trkpt>
      <trkpt lat="43.48028" lon="6.60397">
        <ele>70</ele>
        <time>2024-10-28T12:39:55Z</time>
      </trkpt>
      <trkpt lat="43.48033" lon="6.60386">
        <ele>70.2</ele>
        <time>2024-10-28T12:40:10Z</time>
      </trkpt>
      <trkpt lat="43.48037" lon="6.60375">
        <ele>70.5</ele>
        <time>2024-10-28T12:40:22Z</time>
      </trkpt>
      <trkpt lat="43.48042" lon="6.60364">
        <ele>70.8</ele>
        <time>2024-10-28T12:40:34Z</time>
      </trkpt>
      <trkpt lat="43.48045" lon="6.60352">
        <ele>71.4</ele>
        <time>2024-10-28T12:40:47Z</time>
      </trkpt>
      <trkpt lat="43.48049" lon="6.60341">
        <ele>71.9</ele>
        <time>2024-10-28T12:40:59Z</time>
      </trkpt>
      <trkpt lat="43.48053" lon="6.60329">
        <ele>73</ele>
        <time>2024-10-28T12:41:12Z</time>
      </trkpt>
      <trkpt lat="43.48056" lon="6.60318">
        <ele>74.1</ele>
        <time>2024-10-28T12:41:40Z</time>
      </trkpt>
      <trkpt lat="43.48054" lon="6.60305">
        <ele>74</ele>
        <time>2024-10-28T12:41:52Z</time>
      </trkpt>
      <trkpt lat="43.48054" lon="6.60292">
        <ele>73.9</ele>
        <time>2024-10-28T12:42:03Z</time>
      </trkpt>
      <trkpt lat="43.48057" lon="6.60279">
        <ele>73.9</ele>
        <time>2024-10-28T12:42:18Z</time>
      </trkpt>
      <trkpt lat="43.48056" lon="6.60266">
        <ele>73.9</ele>
        <time>2024-10-28T12:42:30Z</time>
      </trkpt>
      <trkpt lat="43.48052" lon="6.60254">
        <ele>74</ele>
        <time>2024-10-28T12:42:40Z</time>
      </trkpt>
      <trkpt lat="43.48053" lon="6.60242">
        <ele>74</ele>
        <time>2024-10-28T12:42:50Z</time>
      </trkpt>
      <trkpt lat="43.48052" lon="6.60229">
        <ele>73.5</ele>
        <time>2024-10-28T12:43:02Z</time>
      </trkpt>
      <trkpt lat="43.48051" lon="6.60216">
        <ele>72.8</ele>
        <time>2024-10-28T12:43:12Z</time>
      </trkpt>
      <trkpt lat="43.4805" lon="6.60203">
        <ele>72.4</ele>
        <time>2024-10-28T12:43:23Z</time>
      </trkpt>
      <trkpt lat="43.48048" lon="6.6019">
        <ele>72.1</ele>
        <time>2024-10-28T12:43:36Z</time>
      </trkpt>
      <trkpt lat="43.48049" lon="6.60177">
        <ele>71.9</ele>
        <time>2024-10-28T12:43:50Z</time>
      </trkpt>
      <trkpt lat="43.48053" lon="6.60165">
        <ele>71.4</ele>
        <time>2024-10-28T12:44:03Z</time>
      </trkpt>
      <trkpt lat="43.48056" lon="6.60154">
        <ele>70.9</ele>
        <time>2024-10-28T12:44:13Z</time>
      </trkpt>
      <trkpt lat="43.48061" lon="6.60142">
        <ele>70.5</ele>
        <time>2024-10-28T12:44:25Z</time>
      </trkpt>
      <trkpt lat="43.48066" lon="6.60132">
        <ele>69.6</ele>
        <time>2024-10-28T12:44:37Z</time>
      </trkpt>
      <trkpt lat="43.48074" lon="6.60124">
        <ele>68.7</ele>
        <time>2024-10-28T12:44:49Z</time>
      </trkpt>
      <trkpt lat="43.48083" lon="6.60128">
        <ele>68.1</ele>
        <time>2024-10-28T12:45:01Z</time>
      </trkpt>
      <trkpt lat="43.48091" lon="6.60135">
        <ele>67.7</ele>
        <time>2024-10-28T12:45:12Z</time>
      </trkpt>
      <trkpt lat="43.48097" lon="6.60146">
        <ele>67.7</ele>
        <time>2024-10-28T12:45:25Z</time>
      </trkpt>
      <trkpt lat="43.48102" lon="6.60157">
        <ele>67.5</ele>
        <time>2024-10-28T12:45:37Z</time>
      </trkpt>
      <trkpt lat="43.48107" lon="6.60168">
        <ele>67.1</ele>
        <time>2024-10-28T12:45:53Z</time>
      </trkpt>
      <trkpt lat="43.48114" lon="6.60176">
        <ele>67.3</ele>
        <time>2024-10-28T12:46:17Z</time>
      </trkpt>
      <trkpt lat="43.48124" lon="6.60177">
        <ele>66.8</ele>
        <time>2024-10-28T12:46:37Z</time>
      </trkpt>
      <trkpt lat="43.48134" lon="6.60176">
        <ele>66</ele>
        <time>2024-10-28T12:46:51Z</time>
      </trkpt>
      <trkpt lat="43.48143" lon="6.60174">
        <ele>65.8</ele>
        <time>2024-10-28T12:47:11Z</time>
      </trkpt>
      <trkpt lat="43.48152" lon="6.6017">
        <ele>65.2</ele>
        <time>2024-10-28T12:47:25Z</time>
      </trkpt>
      <trkpt lat="43.4816" lon="6.60166">
        <ele>63.7</ele>
        <time>2024-10-28T12:48:16Z</time>
      </trkpt>
      <trkpt lat="43.4817" lon="6.60167">
        <ele>63.7</ele>
        <time>2024-10-28T12:48:31Z</time>
      </trkpt>
      <trkpt lat="43.48179" lon="6.60171">
        <ele>63.3</ele>
        <time>2024-10-28T12:48:44Z</time>
      </trkpt>
      <trkpt lat="43.48186" lon="6.60179">
        <ele>62.9</ele>
        <time>2024-10-28T12:48:59Z</time>
      </trkpt>
      <trkpt lat="43.48195" lon="6.60177">
        <ele>61.5</ele>
        <time>2024-10-28T12:49:17Z</time>
      </trkpt>
      <trkpt lat="43.48193" lon="6.60165">
        <ele>59.9</ele>
        <time>2024-10-28T12:49:31Z</time>
      </trkpt>
      <trkpt lat="43.48187" lon="6.60155">
        <ele>59.2</ele>
        <time>2024-10-28T12:49:43Z</time>
      </trkpt>
      <trkpt lat="43.48182" lon="6.60144">
        <ele>58.8</ele>
        <time>2024-10-28T12:49:55Z</time>
      </trkpt>
      <trkpt lat="43.48176" lon="6.60134">
        <ele>58</ele>
        <time>2024-10-28T12:50:08Z</time>
      </trkpt>
      <trkpt lat="43.4817" lon="6.60124">
        <ele>56.9</ele>
        <time>2024-10-28T12:50:22Z</time>
      </trkpt>
      <trkpt lat="43.48165" lon="6.60113">
        <ele>55.5</ele>
        <time>2024-10-28T12:50:36Z</time>
      </trkpt>
      <trkpt lat="43.4816" lon="6.60103">
        <ele>54</ele>
        <time>2024-10-28T12:50:50Z</time>
      </trkpt>
      <trkpt lat="43.48151" lon="6.60096">
        <ele>52.4</ele>
        <time>2024-10-28T12:51:04Z</time>
      </trkpt>
      <trkpt lat="43.48144" lon="6.60087">
        <ele>51.1</ele>
        <time>2024-10-28T12:51:16Z</time>
      </trkpt>
      <trkpt lat="43.48139" lon="6.60076">
        <ele>49.9</ele>
        <time>2024-10-28T12:51:28Z</time>
      </trkpt>
      <trkpt lat="43.48137" lon="6.60064">
        <ele>49</ele>
        <time>2024-10-28T12:51:43Z</time>
      </trkpt>
      <trkpt lat="43.48141" lon="6.60052">
        <ele>47.8</ele>
        <time>2024-10-28T12:52:02Z</time>
      </trkpt>
      <trkpt lat="43.48149" lon="6.60045">
        <ele>47.8</ele>
        <time>2024-10-28T12:52:16Z</time>
      </trkpt>
      <trkpt lat="43.48156" lon="6.60037">
        <ele>48.2</ele>
        <time>2024-10-28T12:52:32Z</time>
      </trkpt>
      <trkpt lat="43.48163" lon="6.6003">
        <ele>48.9</ele>
        <time>2024-10-28T12:52:44Z</time>
      </trkpt>
      <trkpt lat="43.48171" lon="6.60023">
        <ele>50.1</ele>
        <time>2024-10-28T12:53:03Z</time>
      </trkpt>
      <trkpt lat="43.4818" lon="6.60022">
        <ele>51.4</ele>
        <time>2024-10-28T12:53:20Z</time>
      </trkpt>
      <trkpt lat="43.48187" lon="6.60014">
        <ele>53.1</ele>
        <time>2024-10-28T12:53:35Z</time>
      </trkpt>
      <trkpt lat="43.48195" lon="6.60006">
        <ele>54.4</ele>
        <time>2024-10-28T12:53:49Z</time>
      </trkpt>
      <trkpt lat="43.482" lon="6.59996">
        <ele>54.8</ele>
        <time>2024-10-28T12:54:03Z</time>
      </trkpt>
      <trkpt lat="43.48206" lon="6.59987">
        <ele>54.5</ele>
        <time>2024-10-28T12:54:16Z</time>
      </trkpt>
      <trkpt lat="43.48214" lon="6.59979">
        <ele>56.4</ele>
        <time>2024-10-28T12:54:36Z</time>
      </trkpt>
      <trkpt lat="43.48221" lon="6.59971">
        <ele>57.5</ele>
        <time>2024-10-28T12:54:51Z</time>
      </trkpt>
      <trkpt lat="43.48227" lon="6.59961">
        <ele>58.4</ele>
        <time>2024-10-28T12:55:04Z</time>
      </trkpt>
      <trkpt lat="43.48235" lon="6.59953">
        <ele>59.1</ele>
        <time>2024-10-28T12:55:19Z</time>
      </trkpt>
      <trkpt lat="43.48242" lon="6.59944">
        <ele>59.9</ele>
        <time>2024-10-28T12:55:34Z</time>
      </trkpt>
      <trkpt lat="43.4825" lon="6.59936">
        <ele>60.8</ele>
        <time>2024-10-28T12:55:47Z</time>
      </trkpt>
      <trkpt lat="43.48257" lon="6.5993">
        <ele>61.8</ele>
        <time>2024-10-28T12:56:01Z</time>
      </trkpt>
      <trkpt lat="43.48265" lon="6.59923">
        <ele>62.9</ele>
        <time>2024-10-28T12:56:14Z</time>
      </trkpt>
      <trkpt lat="43.48273" lon="6.59916">
        <ele>63.8</ele>
        <time>2024-10-28T12:56:28Z</time>
      </trkpt>
      <trkpt lat="43.48281" lon="6.59908">
        <ele>65</ele>
        <time>2024-10-28T12:56:43Z</time>
      </trkpt>
      <trkpt lat="43.48287" lon="6.59899">
        <ele>65.8</ele>
        <time>2024-10-28T12:56:55Z</time>
      </trkpt>
      <trkpt lat="43.48295" lon="6.59892">
        <ele>66.4</ele>
        <time>2024-10-28T12:57:07Z</time>
      </trkpt>
      <trkpt lat="43.48303" lon="6.59885">
        <ele>67.3</ele>
        <time>2024-10-28T12:57:19Z</time>
      </trkpt>
      <trkpt lat="43.4831" lon="6.59876">
        <ele>67.8</ele>
        <time>2024-10-28T12:57:30Z</time>
      </trkpt>
      <trkpt lat="43.4832" lon="6.59875">
        <ele>68.1</ele>
        <time>2024-10-28T12:57:42Z</time>
      </trkpt>
      <trkpt lat="43.48328" lon="6.59879">
        <ele>68.2</ele>
        <time>2024-10-28T12:57:54Z</time>
      </trkpt>
      <trkpt lat="43.48338" lon="6.59881">
        <ele>68.3</ele>
        <time>2024-10-28T12:58:06Z</time>
      </trkpt>
      <trkpt lat="43.48347" lon="6.59884">
        <ele>68.4</ele>
        <time>2024-10-28T12:58:16Z</time>
      </trkpt>
      <trkpt lat="43.48356" lon="6.59886">
        <ele>68.8</ele>
        <time>2024-10-28T12:58:29Z</time>
      </trkpt>
      <trkpt lat="43.48365" lon="6.59888">
        <ele>69.4</ele>
        <time>2024-10-28T12:58:42Z</time>
      </trkpt>
      <trkpt lat="43.48375" lon="6.59891">
        <ele>70.2</ele>
        <time>2024-10-28T12:58:56Z</time>
      </trkpt>
      <trkpt lat="43.48384" lon="6.59894">
        <ele>70.9</ele>
        <time>2024-10-28T12:59:09Z</time>
      </trkpt>
      <trkpt lat="43.48393" lon="6.59896">
        <ele>71.6</ele>
        <time>2024-10-28T12:59:22Z</time>
      </trkpt>
      <trkpt lat="43.48402" lon="6.59899">
        <ele>72.8</ele>
        <time>2024-10-28T12:59:36Z</time>
      </trkpt>
      <trkpt lat="43.48411" lon="6.59901">
        <ele>74.1</ele>
        <time>2024-10-28T13:00:07Z</time>
      </trkpt>
      <trkpt lat="43.48421" lon="6.59903">
        <ele>75.7</ele>
        <time>2024-10-28T13:00:27Z</time>
      </trkpt>
      <trkpt lat="43.48431" lon="6.59903">
        <ele>76.8</ele>
        <time>2024-10-28T13:00:41Z</time>
      </trkpt>
      <trkpt lat="43.4844" lon="6.59902">
        <ele>77.9</ele>
        <time>2024-10-28T13:00:57Z</time>
      </trkpt>
      <trkpt lat="43.48449" lon="6.59901">
        <ele>78.5</ele>
        <time>2024-10-28T13:01:09Z</time>
      </trkpt>
      <trkpt lat="43.48459" lon="6.599">
        <ele>79</ele>
        <time>2024-10-28T13:01:21Z</time>
      </trkpt>
      <trkpt lat="43.48468" lon="6.59901">
        <ele>79.5</ele>
        <time>2024-10-28T13:01:32Z</time>
      </trkpt>
      <trkpt lat="43.48478" lon="6.599">
        <ele>80.2</ele>
        <time>2024-10-28T13:01:45Z</time>
      </trkpt>
      <trkpt lat="43.48486" lon="6.59896">
        <ele>81.1</ele>
        <time>2024-10-28T13:01:58Z</time>
      </trkpt>
      <trkpt lat="43.48494" lon="6.59891">
        <ele>82.1</ele>
        <time>2024-10-28T13:02:21Z</time>
      </trkpt>
      <trkpt lat="43.48504" lon="6.59891">
        <ele>82.3</ele>
        <time>2024-10-28T13:05:10Z</time>
      </trkpt>
      <trkpt lat="43.48512" lon="6.59887">
        <ele>82.4</ele>
        <time>2024-10-28T13:05:24Z</time>
      </trkpt>
      <trkpt lat="43.48521" lon="6.59884">
        <ele>82.6</ele>
        <time>2024-10-28T13:05:37Z</time>
      </trkpt>
      <trkpt lat="43.4853" lon="6.59881">
        <ele>83.1</ele>
        <time>2024-10-28T13:05:53Z</time>
      </trkpt>
      <trkpt lat="43.48539" lon="6.59878">
        <ele>83.4</ele>
        <time>2024-10-28T13:06:06Z</time>
      </trkpt>
      <trkpt lat="43.48549" lon="6.59875">
        <ele>83.5</ele>
        <time>2024-10-28T13:06:21Z</time>
      </trkpt>
      <trkpt lat="43.48557" lon="6.59871">
        <ele>84.1</ele>
        <time>2024-10-28T13:06:31Z</time>
      </trkpt>
      <trkpt lat="43.48566" lon="6.5987">
        <ele>84.4</ele>
        <time>2024-10-28T13:06:40Z</time>
      </trkpt>
      <trkpt lat="43.48575" lon="6.59866">
        <ele>84.7</ele>
        <time>2024-10-28T13:06:52Z</time>
      </trkpt>
      <trkpt lat="43.48583" lon="6.59859">
        <ele>84.5</ele>
        <time>2024-10-28T13:07:04Z</time>
      </trkpt>
      <trkpt lat="43.48591" lon="6.59854">
        <ele>84.3</ele>
        <time>2024-10-28T13:07:14Z</time>
      </trkpt>
      <trkpt lat="43.48599" lon="6.59845">
        <ele>83.8</ele>
        <time>2024-10-28T13:07:27Z</time>
      </trkpt>
      <trkpt lat="43.48607" lon="6.59837">
        <ele>82.7</ele>
        <time>2024-10-28T13:07:43Z</time>
      </trkpt>
      <trkpt lat="43.48615" lon="6.59832">
        <ele>82.2</ele>
        <time>2024-10-28T13:07:54Z</time>
      </trkpt>
      <trkpt lat="43.48623" lon="6.59825">
        <ele>81</ele>
        <time>2024-10-28T13:08:09Z</time>
      </trkpt>
      <trkpt lat="43.48631" lon="6.59819">
        <ele>78.6</ele>
        <time>2024-10-28T13:08:34Z</time>
      </trkpt>
      <trkpt lat="43.48638" lon="6.59811">
        <ele>77.4</ele>
        <time>2024-10-28T13:08:47Z</time>
      </trkpt>
      <trkpt lat="43.48643" lon="6.59799">
        <ele>76.5</ele>
        <time>2024-10-28T13:09:00Z</time>
      </trkpt>
      <trkpt lat="43.48649" lon="6.5979">
        <ele>75.5</ele>
        <time>2024-10-28T13:09:11Z</time>
      </trkpt>
      <trkpt lat="43.48654" lon="6.59779">
        <ele>74.2</ele>
        <time>2024-10-28T13:09:26Z</time>
      </trkpt>
      <trkpt lat="43.48649" lon="6.5979">
        <ele>73.4</ele>
        <time>2024-10-28T13:11:01Z</time>
      </trkpt>
      <trkpt lat="43.48643" lon="6.598">
        <ele>74.1</ele>
        <time>2024-10-28T13:11:13Z</time>
      </trkpt>
      <trkpt lat="43.48638" lon="6.5981">
        <ele>74.8</ele>
        <time>2024-10-28T13:11:27Z</time>
      </trkpt>
      <trkpt lat="43.48632" lon="6.59819">
        <ele>76.1</ele>
        <time>2024-10-28T13:11:40Z</time>
      </trkpt>
      <trkpt lat="43.48623" lon="6.59825">
        <ele>77.5</ele>
        <time>2024-10-28T13:11:53Z</time>
      </trkpt>
      <trkpt lat="43.48615" lon="6.59833">
        <ele>78.6</ele>
        <time>2024-10-28T13:12:06Z</time>
      </trkpt>
      <trkpt lat="43.48607" lon="6.59839">
        <ele>78.8</ele>
        <time>2024-10-28T13:12:16Z</time>
      </trkpt>
      <trkpt lat="43.48599" lon="6.59846">
        <ele>79.3</ele>
        <time>2024-10-28T13:12:26Z</time>
      </trkpt>
      <trkpt lat="43.48591" lon="6.59853">
        <ele>79.6</ele>
        <time>2024-10-28T13:12:36Z</time>
      </trkpt>
      <trkpt lat="43.48583" lon="6.59858">
        <ele>79.8</ele>
        <time>2024-10-28T13:12:48Z</time>
      </trkpt>
      <trkpt lat="43.48576" lon="6.59866">
        <ele>79.8</ele>
        <time>2024-10-28T13:13:01Z</time>
      </trkpt>
      <trkpt lat="43.48567" lon="6.59869">
        <ele>79.6</ele>
        <time>2024-10-28T13:13:10Z</time>
      </trkpt>
      <trkpt lat="43.48558" lon="6.59872">
        <ele>79.1</ele>
        <time>2024-10-28T13:13:19Z</time>
      </trkpt>
      <trkpt lat="43.48549" lon="6.59875">
        <ele>78.8</ele>
        <time>2024-10-28T13:13:28Z</time>
      </trkpt>
      <trkpt lat="43.4854" lon="6.59878">
        <ele>78.2</ele>
        <time>2024-10-28T13:13:37Z</time>
      </trkpt>
      <trkpt lat="43.48531" lon="6.59882">
        <ele>77.5</ele>
        <time>2024-10-28T13:13:46Z</time>
      </trkpt>
      <trkpt lat="43.48522" lon="6.59885">
        <ele>76.6</ele>
        <time>2024-10-28T13:13:57Z</time>
      </trkpt>
      <trkpt lat="43.48513" lon="6.59888">
        <ele>76</ele>
        <time>2024-10-28T13:14:07Z</time>
      </trkpt>
      <trkpt lat="43.48503" lon="6.59891">
        <ele>75.4</ele>
        <time>2024-10-28T13:14:17Z</time>
      </trkpt>
      <trkpt lat="43.48495" lon="6.59895">
        <ele>74.5</ele>
        <time>2024-10-28T13:14:33Z</time>
      </trkpt>
      <trkpt lat="43.48492" lon="6.59907">
        <ele>74.1</ele>
        <time>2024-10-28T13:14:57Z</time>
      </trkpt>
      <trkpt lat="43.48496" lon="6.59919">
        <ele>73.9</ele>
        <time>2024-10-28T13:15:07Z</time>
      </trkpt>
      <trkpt lat="43.48501" lon="6.5993">
        <ele>74.7</ele>
        <time>2024-10-28T13:15:18Z</time>
      </trkpt>
      <trkpt lat="43.48507" lon="6.5994">
        <ele>75</ele>
        <time>2024-10-28T13:15:28Z</time>
      </trkpt>
      <trkpt lat="43.48513" lon="6.5995">
        <ele>75.6</ele>
        <time>2024-10-28T13:15:39Z</time>
      </trkpt>
      <trkpt lat="43.4852" lon="6.5996">
        <ele>76.3</ele>
        <time>2024-10-28T13:15:50Z</time>
      </trkpt>
      <trkpt lat="43.48526" lon="6.5997">
        <ele>76.1</ele>
        <time>2024-10-28T13:16:00Z</time>
      </trkpt>
      <trkpt lat="43.48533" lon="6.59979">
        <ele>76.4</ele>
        <time>2024-10-28T13:16:09Z</time>
      </trkpt>
      <trkpt lat="43.4854" lon="6.59989">
        <ele>76.8</ele>
        <time>2024-10-28T13:16:18Z</time>
      </trkpt>
      <trkpt lat="43.48546" lon="6.59999">
        <ele>76.7</ele>
        <time>2024-10-28T13:16:28Z</time>
      </trkpt>
      <trkpt lat="43.48551" lon="6.60011">
        <ele>77.2</ele>
        <time>2024-10-28T13:16:39Z</time>
      </trkpt>
      <trkpt lat="43.48559" lon="6.60017">
        <ele>77.3</ele>
        <time>2024-10-28T13:16:50Z</time>
      </trkpt>
      <trkpt lat="43.48567" lon="6.60022">
        <ele>77.4</ele>
        <time>2024-10-28T13:17:12Z</time>
      </trkpt>
      <trkpt lat="43.48576" lon="6.60023">
        <ele>77.6</ele>
        <time>2024-10-28T13:17:23Z</time>
      </trkpt>
      <trkpt lat="43.48586" lon="6.60026">
        <ele>78</ele>
        <time>2024-10-28T13:17:39Z</time>
      </trkpt>
      <trkpt lat="43.48596" lon="6.60028">
        <ele>78.2</ele>
        <time>2024-10-28T13:17:51Z</time>
      </trkpt>
      <trkpt lat="43.48605" lon="6.60027">
        <ele>78.4</ele>
        <time>2024-10-28T13:18:03Z</time>
      </trkpt>
      <trkpt lat="43.48614" lon="6.60024">
        <ele>78.8</ele>
        <time>2024-10-28T13:18:16Z</time>
      </trkpt>
      <trkpt lat="43.48623" lon="6.6002">
        <ele>79.7</ele>
        <time>2024-10-28T13:18:29Z</time>
      </trkpt>
      <trkpt lat="43.48631" lon="6.60014">
        <ele>80.1</ele>
        <time>2024-10-28T13:18:40Z</time>
      </trkpt>
      <trkpt lat="43.4864" lon="6.60009">
        <ele>79.7</ele>
        <time>2024-10-28T13:18:56Z</time>
      </trkpt>
      <trkpt lat="43.48648" lon="6.60002">
        <ele>79.2</ele>
        <time>2024-10-28T13:19:11Z</time>
      </trkpt>
      <trkpt lat="43.48655" lon="6.59994">
        <ele>78.5</ele>
        <time>2024-10-28T13:19:22Z</time>
      </trkpt>
      <trkpt lat="43.48659" lon="6.59982">
        <ele>78.2</ele>
        <time>2024-10-28T13:19:35Z</time>
      </trkpt>
      <trkpt lat="43.48664" lon="6.59972">
        <ele>77.9</ele>
        <time>2024-10-28T13:19:46Z</time>
      </trkpt>
      <trkpt lat="43.48671" lon="6.59963">
        <ele>77.1</ele>
        <time>2024-10-28T13:19:57Z</time>
      </trkpt>
      <trkpt lat="43.4868" lon="6.59957">
        <ele>76.3</ele>
        <time>2024-10-28T13:20:11Z</time>
      </trkpt>
      <trkpt lat="43.48689" lon="6.59958">
        <ele>76.2</ele>
        <time>2024-10-28T13:20:21Z</time>
      </trkpt>
      <trkpt lat="43.48698" lon="6.59957">
        <ele>76</ele>
        <time>2024-10-28T13:20:33Z</time>
      </trkpt>
      <trkpt lat="43.48706" lon="6.5995">
        <ele>75.8</ele>
        <time>2024-10-28T13:20:52Z</time>
      </trkpt>
      <trkpt lat="43.48712" lon="6.5994">
        <ele>75.6</ele>
        <time>2024-10-28T13:21:13Z</time>
      </trkpt>
      <trkpt lat="43.48718" lon="6.5993">
        <ele>75.5</ele>
        <time>2024-10-28T13:21:25Z</time>
      </trkpt>
      <trkpt lat="43.48723" lon="6.59919">
        <ele>75.5</ele>
        <time>2024-10-28T13:21:36Z</time>
      </trkpt>
      <trkpt lat="43.48728" lon="6.59909">
        <ele>75.5</ele>
        <time>2024-10-28T13:21:47Z</time>
      </trkpt>
      <trkpt lat="43.48732" lon="6.59898">
        <ele>75.5</ele>
        <time>2024-10-28T13:22:08Z</time>
      </trkpt>
      <trkpt lat="43.48738" lon="6.59888">
        <ele>75.2</ele>
        <time>2024-10-28T13:22:34Z</time>
      </trkpt>
      <trkpt lat="43.48745" lon="6.59879">
        <ele>75</ele>
        <time>2024-10-28T13:22:47Z</time>
      </trkpt>
      <trkpt lat="43.48752" lon="6.5987">
        <ele>75</ele>
        <time>2024-10-28T13:22:58Z</time>
      </trkpt>
      <trkpt lat="43.4876" lon="6.59863">
        <ele>75.3</ele>
        <time>2024-10-28T13:23:10Z</time>
      </trkpt>
      <trkpt lat="43.48767" lon="6.59855">
        <ele>76.1</ele>
        <time>2024-10-28T13:23:27Z</time>
      </trkpt>
      <trkpt lat="43.48775" lon="6.59848">
        <ele>76.3</ele>
        <time>2024-10-28T13:23:40Z</time>
      </trkpt>
      <trkpt lat="43.48782" lon="6.59839">
        <ele>76.8</ele>
        <time>2024-10-28T13:23:53Z</time>
      </trkpt>
      <trkpt lat="43.48789" lon="6.59832">
        <ele>76.9</ele>
        <time>2024-10-28T13:24:05Z</time>
      </trkpt>
      <trkpt lat="43.48799" lon="6.59831">
        <ele>77.2</ele>
        <time>2024-10-28T13:24:18Z</time>
      </trkpt>
      <trkpt lat="43.48807" lon="6.59839">
        <ele>77.9</ele>
        <time>2024-10-28T13:24:33Z</time>
      </trkpt>
      <trkpt lat="43.48814" lon="6.59847">
        <ele>78.8</ele>
        <time>2024-10-28T13:24:47Z</time>
      </trkpt>
      <trkpt lat="43.48818" lon="6.59858">
        <ele>80.1</ele>
        <time>2024-10-28T13:25:00Z</time>
      </trkpt>
      <trkpt lat="43.48821" lon="6.5987">
        <ele>80.7</ele>
        <time>2024-10-28T13:25:14Z</time>
      </trkpt>
      <trkpt lat="43.48826" lon="6.59881">
        <ele>80.7</ele>
        <time>2024-10-28T13:25:55Z</time>
      </trkpt>
      <trkpt lat="43.48828" lon="6.59893">
        <ele>79.4</ele>
        <time>2024-10-28T13:27:51Z</time>
      </trkpt>
      <trkpt lat="43.48831" lon="6.59905">
        <ele>78.7</ele>
        <time>2024-10-28T13:28:04Z</time>
      </trkpt>
      <trkpt lat="43.48835" lon="6.59917">
        <ele>78.3</ele>
        <time>2024-10-28T13:28:21Z</time>
      </trkpt>
      <trkpt lat="43.48838" lon="6.59929">
        <ele>77.8</ele>
        <time>2024-10-28T13:28:34Z</time>
      </trkpt>
      <trkpt lat="43.48842" lon="6.5994">
        <ele>77.3</ele>
        <time>2024-10-28T13:28:46Z</time>
      </trkpt>
      <trkpt lat="43.48846" lon="6.59952">
        <ele>76.5</ele>
        <time>2024-10-28T13:28:59Z</time>
      </trkpt>
      <trkpt lat="43.48854" lon="6.59957">
        <ele>75.3</ele>
        <time>2024-10-28T13:29:22Z</time>
      </trkpt>
      <trkpt lat="43.48863" lon="6.59957">
        <ele>74.9</ele>
        <time>2024-10-28T13:29:32Z</time>
      </trkpt>
      <trkpt lat="43.48871" lon="6.59949">
        <ele>74.1</ele>
        <time>2024-10-28T13:29:44Z</time>
      </trkpt>
      <trkpt lat="43.48873" lon="6.59935">
        <ele>73.8</ele>
        <time>2024-10-28T13:29:54Z</time>
      </trkpt>
      <trkpt lat="43.48877" lon="6.59923">
        <ele>72.8</ele>
        <time>2024-10-28T13:30:06Z</time>
      </trkpt>
      <trkpt lat="43.48878" lon="6.5991">
        <ele>72.1</ele>
        <time>2024-10-28T13:30:19Z</time>
      </trkpt>
      <trkpt lat="43.48878" lon="6.59898">
        <ele>70.5</ele>
        <time>2024-10-28T13:30:32Z</time>
      </trkpt>
      <trkpt lat="43.48883" lon="6.59887">
        <ele>69.3</ele>
        <time>2024-10-28T13:30:48Z</time>
      </trkpt>
      <trkpt lat="43.48892" lon="6.59881">
        <ele>68.3</ele>
        <time>2024-10-28T13:31:06Z</time>
      </trkpt>
      <trkpt lat="43.48898" lon="6.59871">
        <ele>66.8</ele>
        <time>2024-10-28T13:31:22Z</time>
      </trkpt>
      <trkpt lat="43.48903" lon="6.5986">
        <ele>66.3</ele>
        <time>2024-10-28T13:31:34Z</time>
      </trkpt>
      <trkpt lat="43.48907" lon="6.59849">
        <ele>65.7</ele>
        <time>2024-10-28T13:31:44Z</time>
      </trkpt>
      <trkpt lat="43.48912" lon="6.59838">
        <ele>64.9</ele>
        <time>2024-10-28T13:31:54Z</time>
      </trkpt>
      <trkpt lat="43.48918" lon="6.59828">
        <ele>64</ele>
        <time>2024-10-28T13:32:07Z</time>
      </trkpt>
      <trkpt lat="43.48924" lon="6.59819">
        <ele>63.2</ele>
        <time>2024-10-28T13:32:17Z</time>
      </trkpt>
      <trkpt lat="43.4893" lon="6.59809">
        <ele>62.1</ele>
        <time>2024-10-28T13:32:28Z</time>
      </trkpt>
      <trkpt lat="43.48938" lon="6.59801">
        <ele>60.6</ele>
        <time>2024-10-28T13:32:39Z</time>
      </trkpt>
      <trkpt lat="43.48944" lon="6.59792">
        <ele>59.9</ele>
        <time>2024-10-28T13:32:50Z</time>
      </trkpt>
      <trkpt lat="43.48949" lon="6.59781">
        <ele>58.7</ele>
        <time>2024-10-28T13:33:33Z</time>
      </trkpt>
      <trkpt lat="43.48953" lon="6.5977">
        <ele>58</ele>
        <time>2024-10-28T13:33:55Z</time>
      </trkpt>
      <trkpt lat="43.48958" lon="6.59758">
        <ele>56.7</ele>
        <time>2024-10-28T13:34:09Z</time>
      </trkpt>
      <trkpt lat="43.48966" lon="6.59762">
        <ele>54.2</ele>
        <time>2024-10-28T13:34:35Z</time>
      </trkpt>
      <trkpt lat="43.4897" lon="6.59775">
        <ele>52.6</ele>
        <time>2024-10-28T13:35:07Z</time>
      </trkpt>
      <trkpt lat="43.48972" lon="6.59787">
        <ele>52.3</ele>
        <time>2024-10-28T13:35:20Z</time>
      </trkpt>
      <trkpt lat="43.48973" lon="6.59799">
        <ele>51.1</ele>
        <time>2024-10-28T13:35:31Z</time>
      </trkpt>
      <trkpt lat="43.48974" lon="6.59812">
        <ele>51.6</ele>
        <time>2024-10-28T13:35:49Z</time>
      </trkpt>
      <trkpt lat="43.48975" lon="6.59825">
        <ele>50.3</ele>
        <time>2024-10-28T13:36:09Z</time>
      </trkpt>
      <trkpt lat="43.48976" lon="6.59837">
        <ele>50.2</ele>
        <time>2024-10-28T13:36:25Z</time>
      </trkpt>
      <trkpt lat="43.48977" lon="6.5985">
        <ele>49.6</ele>
        <time>2024-10-28T13:36:36Z</time>
      </trkpt>
      <trkpt lat="43.48976" lon="6.59862">
        <ele>48.8</ele>
        <time>2024-10-28T13:36:47Z</time>
      </trkpt>
      <trkpt lat="43.48975" lon="6.59875">
        <ele>48</ele>
        <time>2024-10-28T13:36:58Z</time>
      </trkpt>
      <trkpt lat="43.48976" lon="6.59888">
        <ele>47.5</ele>
        <time>2024-10-28T13:37:10Z</time>
      </trkpt>
      <trkpt lat="43.48978" lon="6.599">
        <ele>46.6</ele>
        <time>2024-10-28T13:37:28Z</time>
      </trkpt>
      <trkpt lat="43.48982" lon="6.59911">
        <ele>46.4</ele>
        <time>2024-10-28T13:37:41Z</time>
      </trkpt>
      <trkpt lat="43.48987" lon="6.59922">
        <ele>45.5</ele>
        <time>2024-10-28T13:38:04Z</time>
      </trkpt>
      <trkpt lat="43.48993" lon="6.59931">
        <ele>45.3</ele>
        <time>2024-10-28T13:38:19Z</time>
      </trkpt>
      <trkpt lat="43.48999" lon="6.59942">
        <ele>45.1</ele>
        <time>2024-10-28T13:38:31Z</time>
      </trkpt>
      <trkpt lat="43.49001" lon="6.59954">
        <ele>45</ele>
        <time>2024-10-28T13:38:44Z</time>
      </trkpt>
      <trkpt lat="43.49003" lon="6.59967">
        <ele>44.6</ele>
        <time>2024-10-28T13:38:58Z</time>
      </trkpt>
      <trkpt lat="43.49004" lon="6.5998">
        <ele>43.9</ele>
        <time>2024-10-28T13:39:13Z</time>
      </trkpt>
      <trkpt lat="43.49005" lon="6.59993">
        <ele>43.2</ele>
        <time>2024-10-28T13:39:25Z</time>
      </trkpt>
      <trkpt lat="43.49012" lon="6.59984">
        <ele>42.4</ele>
        <time>2024-10-28T13:40:01Z</time>
      </trkpt>
      <trkpt lat="43.49014" lon="6.59972">
        <ele>42.6</ele>
        <time>2024-10-28T13:40:37Z</time>
      </trkpt>
      <trkpt lat="43.49016" lon="6.59959">
        <ele>42.6</ele>
        <time>2024-10-28T13:40:51Z</time>
      </trkpt>
      <trkpt lat="43.49016" lon="6.59945">
        <ele>42.3</ele>
        <time>2024-10-28T13:41:02Z</time>
      </trkpt>
      <trkpt lat="43.49016" lon="6.59932">
        <ele>41.6</ele>
        <time>2024-10-28T13:41:13Z</time>
      </trkpt>
      <trkpt lat="43.49015" lon="6.59919">
        <ele>40.9</ele>
        <time>2024-10-28T13:41:24Z</time>
      </trkpt>
      <trkpt lat="43.49019" lon="6.59908">
        <ele>40.8</ele>
        <time>2024-10-28T13:41:37Z</time>
      </trkpt>
      <trkpt lat="43.49024" lon="6.59898">
        <ele>40.7</ele>
        <time>2024-10-28T13:41:47Z</time>
      </trkpt>
      <trkpt lat="43.49029" lon="6.59887">
        <ele>40.7</ele>
        <time>2024-10-28T13:41:57Z</time>
      </trkpt>
      <trkpt lat="43.49035" lon="6.59877">
        <ele>40.8</ele>
        <time>2024-10-28T13:42:07Z</time>
      </trkpt>
      <trkpt lat="43.49042" lon="6.59868">
        <ele>41</ele>
        <time>2024-10-28T13:42:19Z</time>
      </trkpt>
      <trkpt lat="43.49051" lon="6.59865">
        <ele>41.2</ele>
        <time>2024-10-28T13:42:30Z</time>
      </trkpt>
      <trkpt lat="43.49061" lon="6.59862">
        <ele>41.7</ele>
        <time>2024-10-28T13:42:42Z</time>
      </trkpt>
      <trkpt lat="43.49067" lon="6.59853">
        <ele>41.9</ele>
        <time>2024-10-28T13:42:54Z</time>
      </trkpt>
      <trkpt lat="43.49069" lon="6.59841">
        <ele>41.7</ele>
        <time>2024-10-28T13:43:19Z</time>
      </trkpt>
      <trkpt lat="43.4907" lon="6.59828">
        <ele>41.1</ele>
        <time>2024-10-28T13:43:43Z</time>
      </trkpt>
      <trkpt lat="43.49073" lon="6.59815">
        <ele>40.4</ele>
        <time>2024-10-28T13:43:55Z</time>
      </trkpt>
      <trkpt lat="43.49075" lon="6.59802">
        <ele>39.5</ele>
        <time>2024-10-28T13:44:07Z</time>
      </trkpt>
      <trkpt lat="43.49078" lon="6.5979">
        <ele>38.3</ele>
        <time>2024-10-28T13:44:20Z</time>
      </trkpt>
      <trkpt lat="43.49082" lon="6.59778">
        <ele>36.6</ele>
        <time>2024-10-28T13:44:45Z</time>
      </trkpt>
      <trkpt lat="43.49091" lon="6.59776">
        <ele>34.6</ele>
        <time>2024-10-28T13:45:05Z</time>
      </trkpt>
      <trkpt lat="43.49092" lon="6.59763">
        <ele>33</ele>
        <time>2024-10-28T13:45:24Z</time>
      </trkpt>
      <trkpt lat="43.49093" lon="6.5975">
        <ele>31.1</ele>
        <time>2024-10-28T13:45:44Z</time>
      </trkpt>
      <trkpt lat="43.49089" lon="6.59739">
        <ele>29.9</ele>
        <time>2024-10-28T13:45:59Z</time>
      </trkpt>
      <trkpt lat="43.49087" lon="6.59726">
        <ele>29.3</ele>
        <time>2024-10-28T13:46:11Z</time>
      </trkpt>
      <trkpt lat="43.49094" lon="6.59718">
        <ele>27.1</ele>
        <time>2024-10-28T13:46:25Z</time>
      </trkpt>
      <trkpt lat="43.49101" lon="6.5971">
        <ele>24.5</ele>
        <time>2024-10-28T13:46:47Z</time>
      </trkpt>
      <trkpt lat="43.49109" lon="6.59705">
        <ele>23.1</ele>
        <time>2024-10-28T13:48:21Z</time>
      </trkpt>
      <trkpt lat="43.49117" lon="6.59698">
        <ele>22.8</ele>
        <time>2024-10-28T13:49:48Z</time>
      </trkpt>
      <trkpt lat="43.49124" lon="6.5969">
        <ele>23.8</ele>
        <time>2024-10-28T13:50:10Z</time>
      </trkpt>
      <trkpt lat="43.49132" lon="6.59698">
        <ele>24.7</ele>
        <time>2024-10-28T13:50:45Z</time>
      </trkpt>
      <trkpt lat="43.49137" lon="6.59709">
        <ele>25</ele>
        <time>2024-10-28T13:51:09Z</time>
      </trkpt>
      <trkpt lat="43.49142" lon="6.5972">
        <ele>25.2</ele>
        <time>2024-10-28T13:51:20Z</time>
      </trkpt>
      <trkpt lat="43.49147" lon="6.59731">
        <ele>25.7</ele>
        <time>2024-10-28T13:51:31Z</time>
      </trkpt>
      <trkpt lat="43.4915" lon="6.59744">
        <ele>26.2</ele>
        <time>2024-10-28T13:51:44Z</time>
      </trkpt>
      <trkpt lat="43.49155" lon="6.59755">
        <ele>26.4</ele>
        <time>2024-10-28T13:51:55Z</time>
      </trkpt>
      <trkpt lat="43.4916" lon="6.59765">
        <ele>26.6</ele>
        <time>2024-10-28T13:52:06Z</time>
      </trkpt>
      <trkpt lat="43.49165" lon="6.59777">
        <ele>26.6</ele>
        <time>2024-10-28T13:52:17Z</time>
      </trkpt>
      <trkpt lat="43.4917" lon="6.59788">
        <ele>26.8</ele>
        <time>2024-10-28T13:52:27Z</time>
      </trkpt>
      <trkpt lat="43.49175" lon="6.59799">
        <ele>27.2</ele>
        <time>2024-10-28T13:52:37Z</time>
      </trkpt>
      <trkpt lat="43.49181" lon="6.59809">
        <ele>27.7</ele>
        <time>2024-10-28T13:52:48Z</time>
      </trkpt>
      <trkpt lat="43.49187" lon="6.5982">
        <ele>28.3</ele>
        <time>2024-10-28T13:52:59Z</time>
      </trkpt>
      <trkpt lat="43.49193" lon="6.5983">
        <ele>28.9</ele>
        <time>2024-10-28T13:53:10Z</time>
      </trkpt>
      <trkpt lat="43.49198" lon="6.59841">
        <ele>29.7</ele>
        <time>2024-10-28T13:53:25Z</time>
      </trkpt>
      <trkpt lat="43.49203" lon="6.59852">
        <ele>30.4</ele>
        <time>2024-10-28T13:53:36Z</time>
      </trkpt>
      <trkpt lat="43.49208" lon="6.59863">
        <ele>31.1</ele>
        <time>2024-10-28T13:53:48Z</time>
      </trkpt>
      <trkpt lat="43.49215" lon="6.59871">
        <ele>32.3</ele>
        <time>2024-10-28T13:54:16Z</time>
      </trkpt>
      <trkpt lat="43.49223" lon="6.59878">
        <ele>33</ele>
        <time>2024-10-28T13:54:39Z</time>
      </trkpt>
      <trkpt lat="43.49231" lon="6.59884">
        <ele>34.4</ele>
        <time>2024-10-28T13:54:53Z</time>
      </trkpt>
      <trkpt lat="43.49239" lon="6.5989">
        <ele>35.4</ele>
        <time>2024-10-28T13:55:03Z</time>
      </trkpt>
      <trkpt lat="43.49247" lon="6.59897">
        <ele>36.2</ele>
        <time>2024-10-28T13:55:17Z</time>
      </trkpt>
      <trkpt lat="43.49255" lon="6.59905">
        <ele>36.6</ele>
        <time>2024-10-28T13:55:27Z</time>
      </trkpt>
      <trkpt lat="43.49263" lon="6.59913">
        <ele>37.2</ele>
        <time>2024-10-28T13:55:40Z</time>
      </trkpt>
      <trkpt lat="43.4927" lon="6.5992">
        <ele>37.3</ele>
        <time>2024-10-28T13:55:54Z</time>
      </trkpt>
      <trkpt lat="43.49278" lon="6.59929">
        <ele>37.4</ele>
        <time>2024-10-28T13:56:07Z</time>
      </trkpt>
      <trkpt lat="43.49286" lon="6.59934">
        <ele>38.1</ele>
        <time>2024-10-28T13:56:20Z</time>
      </trkpt>
      <trkpt lat="43.49294" lon="6.59941">
        <ele>38.2</ele>
        <time>2024-10-28T13:56:32Z</time>
      </trkpt>
      <trkpt lat="43.49302" lon="6.59946">
        <ele>38.8</ele>
        <time>2024-10-28T13:56:45Z</time>
      </trkpt>
      <trkpt lat="43.49311" lon="6.59953">
        <ele>39.8</ele>
        <time>2024-10-28T13:56:58Z</time>
      </trkpt>
      <trkpt lat="43.49318" lon="6.59961">
        <ele>40.7</ele>
        <time>2024-10-28T13:57:15Z</time>
      </trkpt>
      <trkpt lat="43.49325" lon="6.59968">
        <ele>41.9</ele>
        <time>2024-10-28T13:57:33Z</time>
      </trkpt>
      <trkpt lat="43.49334" lon="6.59973">
        <ele>43.3</ele>
        <time>2024-10-28T13:57:50Z</time>
      </trkpt>
      <trkpt lat="43.49342" lon="6.5998">
        <ele>45</ele>
        <time>2024-10-28T13:58:09Z</time>
      </trkpt>
      <trkpt lat="43.4935" lon="6.59987">
        <ele>46.7</ele>
        <time>2024-10-28T13:58:23Z</time>
      </trkpt>
      <trkpt lat="43.49357" lon="6.59996">
        <ele>47.5</ele>
        <time>2024-10-28T13:58:35Z</time>
      </trkpt>
      <trkpt lat="43.49365" lon="6.60002">
        <ele>48.2</ele>
        <time>2024-10-28T13:58:48Z</time>
      </trkpt>
      <trkpt lat="43.49373" lon="6.60009">
        <ele>48.7</ele>
        <time>2024-10-28T13:59:02Z</time>
      </trkpt>
      <trkpt lat="43.49381" lon="6.60016">
        <ele>49.2</ele>
        <time>2024-10-28T13:59:14Z</time>
      </trkpt>
      <trkpt lat="43.49389" lon="6.60023">
        <ele>50</ele>
        <time>2024-10-28T13:59:27Z</time>
      </trkpt>
      <trkpt lat="43.49398" lon="6.60028">
        <ele>50.8</ele>
        <time>2024-10-28T13:59:40Z</time>
      </trkpt>
      <trkpt lat="43.49405" lon="6.60036">
        <ele>51.5</ele>
        <time>2024-10-28T13:59:54Z</time>
      </trkpt>
      <trkpt lat="43.49413" lon="6.60044">
        <ele>51.8</ele>
        <time>2024-10-28T14:00:05Z</time>
      </trkpt>
      <trkpt lat="43.4942" lon="6.60052">
        <ele>52</ele>
        <time>2024-10-28T14:00:17Z</time>
      </trkpt>
      <trkpt lat="43.49428" lon="6.60059">
        <ele>52</ele>
        <time>2024-10-28T14:00:27Z</time>
      </trkpt>
      <trkpt lat="43.49435" lon="6.60068">
        <ele>52.1</ele>
        <time>2024-10-28T14:00:38Z</time>
      </trkpt>
      <trkpt lat="43.49442" lon="6.60076">
        <ele>51.8</ele>
        <time>2024-10-28T14:00:54Z</time>
      </trkpt>
      <trkpt lat="43.4945" lon="6.60085">
        <ele>51.7</ele>
        <time>2024-10-28T14:01:30Z</time>
      </trkpt>
      <trkpt lat="43.49458" lon="6.60092">
        <ele>51.9</ele>
        <time>2024-10-28T14:01:43Z</time>
      </trkpt>
      <trkpt lat="43.49464" lon="6.60101">
        <ele>52.2</ele>
        <time>2024-10-28T14:02:06Z</time>
      </trkpt>
      <trkpt lat="43.49472" lon="6.60108">
        <ele>52.4</ele>
        <time>2024-10-28T14:02:21Z</time>
      </trkpt>
      <trkpt lat="43.4948" lon="6.60114">
        <ele>52.9</ele>
        <time>2024-10-28T14:02:33Z</time>
      </trkpt>
      <trkpt lat="43.49485" lon="6.60124">
        <ele>53.5</ele>
        <time>2024-10-28T14:02:44Z</time>
      </trkpt>
      <trkpt lat="43.49492" lon="6.60134">
        <ele>54.6</ele>
        <time>2024-10-28T14:02:57Z</time>
      </trkpt>
      <trkpt lat="43.49499" lon="6.60141">
        <ele>55.6</ele>
        <time>2024-10-28T14:03:14Z</time>
      </trkpt>
      <trkpt lat="43.49507" lon="6.60149">
        <ele>56.2</ele>
        <time>2024-10-28T14:03:26Z</time>
      </trkpt>
      <trkpt lat="43.49515" lon="6.60156">
        <ele>56.6</ele>
        <time>2024-10-28T14:03:38Z</time>
      </trkpt>
      <trkpt lat="43.49522" lon="6.60164">
        <ele>56.8</ele>
        <time>2024-10-28T14:03:49Z</time>
      </trkpt>
      <trkpt lat="43.49528" lon="6.60174">
        <ele>57.3</ele>
        <time>2024-10-28T14:04:02Z</time>
      </trkpt>
      <trkpt lat="43.49537" lon="6.60179">
        <ele>57.5</ele>
        <time>2024-10-28T14:04:16Z</time>
      </trkpt>
      <trkpt lat="43.49545" lon="6.60185">
        <ele>57.8</ele>
        <time>2024-10-28T14:04:43Z</time>
      </trkpt>
      <trkpt lat="43.49552" lon="6.60194">
        <ele>57.7</ele>
        <time>2024-10-28T14:04:56Z</time>
      </trkpt>
      <trkpt lat="43.49561" lon="6.60195">
        <ele>58</ele>
        <time>2024-10-28T14:05:07Z</time>
      </trkpt>
      <trkpt lat="43.4957" lon="6.60196">
        <ele>58.1</ele>
        <time>2024-10-28T14:05:21Z</time>
      </trkpt>
      <trkpt lat="43.49579" lon="6.60195">
        <ele>58.5</ele>
        <time>2024-10-28T14:05:35Z</time>
      </trkpt>
      <trkpt lat="43.49589" lon="6.60196">
        <ele>59.1</ele>
        <time>2024-10-28T14:05:48Z</time>
      </trkpt>
      <trkpt lat="43.49598" lon="6.60199">
        <ele>59.3</ele>
        <time>2024-10-28T14:05:59Z</time>
      </trkpt>
      <trkpt lat="43.49607" lon="6.60199">
        <ele>59.7</ele>
        <time>2024-10-28T14:06:10Z</time>
      </trkpt>
      <trkpt lat="43.49617" lon="6.602">
        <ele>60.2</ele>
        <time>2024-10-28T14:06:21Z</time>
      </trkpt>
      <trkpt lat="43.49626" lon="6.60201">
        <ele>60.8</ele>
        <time>2024-10-28T14:06:32Z</time>
      </trkpt>
      <trkpt lat="43.49636" lon="6.60201">
        <ele>61</ele>
        <time>2024-10-28T14:06:44Z</time>
      </trkpt>
      <trkpt lat="43.49646" lon="6.602">
        <ele>61.1</ele>
        <time>2024-10-28T14:06:57Z</time>
      </trkpt>
      <trkpt lat="43.49655" lon="6.602">
        <ele>60.9</ele>
        <time>2024-10-28T14:07:10Z</time>
      </trkpt>
      <trkpt lat="43.49658" lon="6.60212">
        <ele>61.2</ele>
        <time>2024-10-28T14:07:25Z</time>
      </trkpt>
      <trkpt lat="43.49662" lon="6.60223">
        <ele>60.8</ele>
        <time>2024-10-28T14:07:41Z</time>
      </trkpt>
      <trkpt lat="43.49671" lon="6.60228">
        <ele>60.9</ele>
        <time>2024-10-28T14:07:54Z</time>
      </trkpt>
      <trkpt lat="43.49677" lon="6.60238">
        <ele>61</ele>
        <time>2024-10-28T14:08:05Z</time>
      </trkpt>
      <trkpt lat="43.49683" lon="6.60248">
        <ele>61.2</ele>
        <time>2024-10-28T14:08:21Z</time>
      </trkpt>
      <trkpt lat="43.49688" lon="6.60258">
        <ele>60.9</ele>
        <time>2024-10-28T14:08:32Z</time>
      </trkpt>
      <trkpt lat="43.49694" lon="6.60268">
        <ele>61.5</ele>
        <time>2024-10-28T14:08:47Z</time>
      </trkpt>
      <trkpt lat="43.49699" lon="6.6028">
        <ele>62.5</ele>
        <time>2024-10-28T14:09:00Z</time>
      </trkpt>
      <trkpt lat="43.49706" lon="6.60287">
        <ele>63.3</ele>
        <time>2024-10-28T14:09:13Z</time>
      </trkpt>
      <trkpt lat="43.49714" lon="6.60295">
        <ele>63.9</ele>
        <time>2024-10-28T14:09:25Z</time>
      </trkpt>
      <trkpt lat="43.49721" lon="6.60304">
        <ele>64.5</ele>
        <time>2024-10-28T14:09:36Z</time>
      </trkpt>
      <trkpt lat="43.49729" lon="6.6031">
        <ele>65.1</ele>
        <time>2024-10-28T14:09:50Z</time>
      </trkpt>
      <trkpt lat="43.49737" lon="6.60316">
        <ele>65.5</ele>
        <time>2024-10-28T14:10:02Z</time>
      </trkpt>
      <trkpt lat="43.49746" lon="6.60321">
        <ele>66.1</ele>
        <time>2024-10-28T14:10:15Z</time>
      </trkpt>
      <trkpt lat="43.49753" lon="6.60328">
        <ele>66.4</ele>
        <time>2024-10-28T14:10:27Z</time>
      </trkpt>
      <trkpt lat="43.49756" lon="6.60341">
        <ele>66.7</ele>
        <time>2024-10-28T14:10:38Z</time>
      </trkpt>
      <trkpt lat="43.49757" lon="6.60354">
        <ele>66.6</ele>
        <time>2024-10-28T14:10:49Z</time>
      </trkpt>
      <trkpt lat="43.4976" lon="6.60366">
        <ele>66.8</ele>
        <time>2024-10-28T14:11:00Z</time>
      </trkpt>
      <trkpt lat="43.49766" lon="6.60377">
        <ele>67</ele>
        <time>2024-10-28T14:11:10Z</time>
      </trkpt>
      <trkpt lat="43.49774" lon="6.60383">
        <ele>67.1</ele>
        <time>2024-10-28T14:11:20Z</time>
      </trkpt>
      <trkpt lat="43.49782" lon="6.60389">
        <ele>67.3</ele>
        <time>2024-10-28T14:11:30Z</time>
      </trkpt>
      <trkpt lat="43.49789" lon="6.60398">
        <ele>67.7</ele>
        <time>2024-10-28T14:11:42Z</time>
      </trkpt>
      <trkpt lat="43.49795" lon="6.60408">
        <ele>67.9</ele>
        <time>2024-10-28T14:11:54Z</time>
      </trkpt>
      <trkpt lat="43.49801" lon="6.60419">
        <ele>68.1</ele>
        <time>2024-10-28T14:12:05Z</time>
      </trkpt>
      <trkpt lat="43.49807" lon="6.60429">
        <ele>68.4</ele>
        <time>2024-10-28T14:12:17Z</time>
      </trkpt>
      <trkpt lat="43.49813" lon="6.60439">
        <ele>68.5</ele>
        <time>2024-10-28T14:12:28Z</time>
      </trkpt>
      <trkpt lat="43.49819" lon="6.60448">
        <ele>68.5</ele>
        <time>2024-10-28T14:12:38Z</time>
      </trkpt>
      <trkpt lat="43.49826" lon="6.60457">
        <ele>68.6</ele>
        <time>2024-10-28T14:12:49Z</time>
      </trkpt>
      <trkpt lat="43.49832" lon="6.60467">
        <ele>68.7</ele>
        <time>2024-10-28T14:12:59Z</time>
      </trkpt>
      <trkpt lat="43.49838" lon="6.60476">
        <ele>68.5</ele>
        <time>2024-10-28T14:13:08Z</time>
      </trkpt>
      <trkpt lat="43.49844" lon="6.60487">
        <ele>68.2</ele>
        <time>2024-10-28T14:13:17Z</time>
      </trkpt>
      <trkpt lat="43.49852" lon="6.60494">
        <ele>68.1</ele>
        <time>2024-10-28T14:13:29Z</time>
      </trkpt>
      <trkpt lat="43.49859" lon="6.60502">
        <ele>68</ele>
        <time>2024-10-28T14:13:42Z</time>
      </trkpt>
      <trkpt lat="43.49869" lon="6.60503">
        <ele>67.6</ele>
        <time>2024-10-28T14:14:03Z</time>
      </trkpt>
      <trkpt lat="43.49878" lon="6.605">
        <ele>66.7</ele>
        <time>2024-10-28T14:14:21Z</time>
      </trkpt>
      <trkpt lat="43.49886" lon="6.60502">
        <ele>65.1</ele>
        <time>2024-10-28T14:14:40Z</time>
      </trkpt>
      <trkpt lat="43.49895" lon="6.60498">
        <ele>64</ele>
        <time>2024-10-28T14:15:04Z</time>
      </trkpt>
      <trkpt lat="43.49904" lon="6.60497">
        <ele>62.9</ele>
        <time>2024-10-28T14:15:20Z</time>
      </trkpt>
      <trkpt lat="43.49913" lon="6.60493">
        <ele>61.1</ele>
        <time>2024-10-28T14:15:38Z</time>
      </trkpt>
      <trkpt lat="43.49922" lon="6.6049">
        <ele>60.1</ele>
        <time>2024-10-28T14:15:53Z</time>
      </trkpt>
      <trkpt lat="43.49931" lon="6.60486">
        <ele>59.8</ele>
        <time>2024-10-28T14:16:08Z</time>
      </trkpt>
      <trkpt lat="43.49939" lon="6.60479">
        <ele>60.1</ele>
        <time>2024-10-28T14:16:22Z</time>
      </trkpt>
      <trkpt lat="43.49949" lon="6.60479">
        <ele>61.3</ele>
        <time>2024-10-28T14:16:39Z</time>
      </trkpt>
      <trkpt lat="43.49957" lon="6.60474">
        <ele>61</ele>
        <time>2024-10-28T14:18:32Z</time>
      </trkpt>
      <trkpt lat="43.49966" lon="6.6047">
        <ele>60</ele>
        <time>2024-10-28T14:18:46Z</time>
      </trkpt>
      <trkpt lat="43.49974" lon="6.60463">
        <ele>59.9</ele>
        <time>2024-10-28T14:18:56Z</time>
      </trkpt>
      <trkpt lat="43.49983" lon="6.60457">
        <ele>59.7</ele>
        <time>2024-10-28T14:19:06Z</time>
      </trkpt>
      <trkpt lat="43.49992" lon="6.60451">
        <ele>59</ele>
        <time>2024-10-28T14:19:16Z</time>
      </trkpt>
      <trkpt lat="43.5" lon="6.60445">
        <ele>58.4</ele>
        <time>2024-10-28T14:19:27Z</time>
      </trkpt>
      <trkpt lat="43.50009" lon="6.6044">
        <ele>58.6</ele>
        <time>2024-10-28T14:19:37Z</time>
      </trkpt>
      <trkpt lat="43.50017" lon="6.60434">
        <ele>59.7</ele>
        <time>2024-10-28T14:19:47Z</time>
      </trkpt>
      <trkpt lat="43.50026" lon="6.6043">
        <ele>60.5</ele>
        <time>2024-10-28T14:19:57Z</time>
      </trkpt>
      <trkpt lat="43.50035" lon="6.60425">
        <ele>60.6</ele>
        <time>2024-10-28T14:20:07Z</time>
      </trkpt>
      <trkpt lat="43.50044" lon="6.60422">
        <ele>61.3</ele>
        <time>2024-10-28T14:20:17Z</time>
      </trkpt>
      <trkpt lat="43.50053" lon="6.60418">
        <ele>61.5</ele>
        <time>2024-10-28T14:20:28Z</time>
      </trkpt>
      <trkpt lat="43.50061" lon="6.60412">
        <ele>62.1</ele>
        <time>2024-10-28T14:20:42Z</time>
      </trkpt>
      <trkpt lat="43.5007" lon="6.60407">
        <ele>63.1</ele>
        <time>2024-10-28T14:20:54Z</time>
      </trkpt>
      <trkpt lat="43.50078" lon="6.60401">
        <ele>63.7</ele>
        <time>2024-10-28T14:21:05Z</time>
      </trkpt>
      <trkpt lat="43.50087" lon="6.60397">
        <ele>64.8</ele>
        <time>2024-10-28T14:21:48Z</time>
      </trkpt>
      <trkpt lat="43.50096" lon="6.60392">
        <ele>65.1</ele>
        <time>2024-10-28T14:22:11Z</time>
      </trkpt>
      <trkpt lat="43.50105" lon="6.60388">
        <ele>65.4</ele>
        <time>2024-10-28T14:22:22Z</time>
      </trkpt>
      <trkpt lat="43.50113" lon="6.60384">
        <ele>64.8</ele>
        <time>2024-10-28T14:22:32Z</time>
      </trkpt>
      <trkpt lat="43.50123" lon="6.60381">
        <ele>63.7</ele>
        <time>2024-10-28T14:22:42Z</time>
      </trkpt>
      <trkpt lat="43.50132" lon="6.60377">
        <ele>62.7</ele>
        <time>2024-10-28T14:22:52Z</time>
      </trkpt>
      <trkpt lat="43.50141" lon="6.60372">
        <ele>62.3</ele>
        <time>2024-10-28T14:23:02Z</time>
      </trkpt>
      <trkpt lat="43.50149" lon="6.60365">
        <ele>62</ele>
        <time>2024-10-28T14:23:12Z</time>
      </trkpt>
      <trkpt lat="43.50158" lon="6.60362">
        <ele>61.6</ele>
        <time>2024-10-28T14:23:22Z</time>
      </trkpt>
      <trkpt lat="43.50167" lon="6.60356">
        <ele>61.7</ele>
        <time>2024-10-28T14:23:33Z</time>
      </trkpt>
      <trkpt lat="43.50175" lon="6.6035">
        <ele>62.4</ele>
        <time>2024-10-28T14:23:43Z</time>
      </trkpt>
      <trkpt lat="43.50184" lon="6.60345">
        <ele>63.3</ele>
        <time>2024-10-28T14:23:56Z</time>
      </trkpt>
      <trkpt lat="43.50193" lon="6.60339">
        <ele>64.1</ele>
        <time>2024-10-28T14:24:07Z</time>
      </trkpt>
      <trkpt lat="43.50202" lon="6.60337">
        <ele>64.9</ele>
        <time>2024-10-28T14:24:18Z</time>
      </trkpt>
      <trkpt lat="43.50211" lon="6.60331">
        <ele>65.1</ele>
        <time>2024-10-28T14:24:28Z</time>
      </trkpt>
      <trkpt lat="43.50219" lon="6.60326">
        <ele>64.9</ele>
        <time>2024-10-28T14:24:38Z</time>
      </trkpt>
      <trkpt lat="43.50227" lon="6.60319">
        <ele>63.6</ele>
        <time>2024-10-28T14:24:49Z</time>
      </trkpt>
      <trkpt lat="43.50235" lon="6.60315">
        <ele>63.4</ele>
        <time>2024-10-28T14:24:59Z</time>
      </trkpt>
      <trkpt lat="43.50244" lon="6.6031">
        <ele>63.5</ele>
        <time>2024-10-28T14:25:09Z</time>
      </trkpt>
      <trkpt lat="43.50254" lon="6.60306">
        <ele>63.7</ele>
        <time>2024-10-28T14:25:18Z</time>
      </trkpt>
      <trkpt lat="43.50262" lon="6.60302">
        <ele>63.8</ele>
        <time>2024-10-28T14:25:28Z</time>
      </trkpt>
      <trkpt lat="43.50271" lon="6.60297">
        <ele>63.5</ele>
        <time>2024-10-28T14:25:36Z</time>
      </trkpt>
      <trkpt lat="43.5028" lon="6.60292">
        <ele>62.6</ele>
        <time>2024-10-28T14:25:48Z</time>
      </trkpt>
      <trkpt lat="43.50288" lon="6.60288">
        <ele>62.1</ele>
        <time>2024-10-28T14:25:57Z</time>
      </trkpt>
      <trkpt lat="43.50298" lon="6.60285">
        <ele>61.9</ele>
        <time>2024-10-28T14:26:06Z</time>
      </trkpt>
      <trkpt lat="43.50307" lon="6.6028">
        <ele>62.1</ele>
        <time>2024-10-28T14:26:16Z</time>
      </trkpt>
      <trkpt lat="43.50316" lon="6.60277">
        <ele>62.9</ele>
        <time>2024-10-28T14:26:29Z</time>
      </trkpt>
      <trkpt lat="43.50323" lon="6.60269">
        <ele>63.8</ele>
        <time>2024-10-28T14:26:41Z</time>
      </trkpt>
      <trkpt lat="43.50332" lon="6.60264">
        <ele>64.3</ele>
        <time>2024-10-28T14:26:51Z</time>
      </trkpt>
      <trkpt lat="43.50341" lon="6.6026">
        <ele>64.6</ele>
        <time>2024-10-28T14:27:01Z</time>
      </trkpt>
      <trkpt lat="43.50349" lon="6.60256">
        <ele>65.2</ele>
        <time>2024-10-28T14:27:10Z</time>
      </trkpt>
      <trkpt lat="43.50358" lon="6.60249">
        <ele>65.8</ele>
        <time>2024-10-28T14:27:21Z</time>
      </trkpt>
      <trkpt lat="43.50365" lon="6.60242">
        <ele>67.3</ele>
        <time>2024-10-28T14:27:33Z</time>
      </trkpt>
      <trkpt lat="43.50374" lon="6.60238">
        <ele>68.4</ele>
        <time>2024-10-28T14:27:45Z</time>
      </trkpt>
      <trkpt lat="43.50382" lon="6.6023">
        <ele>69.6</ele>
        <time>2024-10-28T14:27:58Z</time>
      </trkpt>
      <trkpt lat="43.50389" lon="6.60223">
        <ele>70.2</ele>
        <time>2024-10-28T14:28:08Z</time>
      </trkpt>
      <trkpt lat="43.50398" lon="6.60217">
        <ele>70.5</ele>
        <time>2024-10-28T14:28:19Z</time>
      </trkpt>
      <trkpt lat="43.50407" lon="6.60213">
        <ele>71.4</ele>
        <time>2024-10-28T14:28:29Z</time>
      </trkpt>
      <trkpt lat="43.50416" lon="6.60206">
        <ele>71.8</ele>
        <time>2024-10-28T14:28:40Z</time>
      </trkpt>
      <trkpt lat="43.50425" lon="6.60204">
        <ele>73</ele>
        <time>2024-10-28T14:28:52Z</time>
      </trkpt>
      <trkpt lat="43.50434" lon="6.60208">
        <ele>73.5</ele>
        <time>2024-10-28T14:29:02Z</time>
      </trkpt>
      <trkpt lat="43.50443" lon="6.60213">
        <ele>73.1</ele>
        <time>2024-10-28T14:29:13Z</time>
      </trkpt>
      <trkpt lat="43.50452" lon="6.60215">
        <ele>74.1</ele>
        <time>2024-10-28T14:29:24Z</time>
      </trkpt>
      <trkpt lat="43.50462" lon="6.60216">
        <ele>74</ele>
        <time>2024-10-28T14:29:34Z</time>
      </trkpt>
      <trkpt lat="43.50471" lon="6.60219">
        <ele>74.2</ele>
        <time>2024-10-28T14:29:44Z</time>
      </trkpt>
      <trkpt lat="43.5048" lon="6.60224">
        <ele>75.1</ele>
        <time>2024-10-28T14:29:56Z</time>
      </trkpt>
      <trkpt lat="43.50488" lon="6.60228">
        <ele>74.7</ele>
        <time>2024-10-28T14:32:40Z</time>
      </trkpt>
      <trkpt lat="43.50497" lon="6.60224">
        <ele>75.6</ele>
        <time>2024-10-28T14:33:36Z</time>
      </trkpt>
      <trkpt lat="43.50506" lon="6.60217">
        <ele>75.8</ele>
        <time>2024-10-28T14:33:44Z</time>
      </trkpt>
      <trkpt lat="43.50514" lon="6.60211">
        <ele>76</ele>
        <time>2024-10-28T14:33:52Z</time>
      </trkpt>
      <trkpt lat="43.50522" lon="6.60205">
        <ele>76.2</ele>
        <time>2024-10-28T14:33:59Z</time>
      </trkpt>
      <trkpt lat="43.50531" lon="6.602">
        <ele>76.2</ele>
        <time>2024-10-28T14:34:07Z</time>
      </trkpt>
      <trkpt lat="43.50538" lon="6.60192">
        <ele>76.1</ele>
        <time>2024-10-28T14:34:15Z</time>
      </trkpt>
      <trkpt lat="43.50546" lon="6.60184">
        <ele>76</ele>
        <time>2024-10-28T14:34:23Z</time>
      </trkpt>
      <trkpt lat="43.50554" lon="6.60177">
        <ele>75.7</ele>
        <time>2024-10-28T14:34:31Z</time>
      </trkpt>
      <trkpt lat="43.50563" lon="6.60169">
        <ele>75.6</ele>
        <time>2024-10-28T14:34:38Z</time>
      </trkpt>
      <trkpt lat="43.50571" lon="6.60162">
        <ele>75.7</ele>
        <time>2024-10-28T14:34:46Z</time>
      </trkpt>
      <trkpt lat="43.50578" lon="6.60153">
        <ele>75.7</ele>
        <time>2024-10-28T14:34:54Z</time>
      </trkpt>
      <trkpt lat="43.50586" lon="6.60144">
        <ele>75.6</ele>
        <time>2024-10-28T14:35:02Z</time>
      </trkpt>
      <trkpt lat="43.50593" lon="6.60135">
        <ele>75.6</ele>
        <time>2024-10-28T14:35:10Z</time>
      </trkpt>
      <trkpt lat="43.506" lon="6.60126">
        <ele>75.5</ele>
        <time>2024-10-28T14:35:18Z</time>
      </trkpt>
      <trkpt lat="43.50606" lon="6.60117">
        <ele>75.1</ele>
        <time>2024-10-28T14:35:27Z</time>
      </trkpt>
      <trkpt lat="43.50613" lon="6.60107">
        <ele>74.8</ele>
        <time>2024-10-28T14:35:35Z</time>
      </trkpt>
      <trkpt lat="43.50619" lon="6.60096">
        <ele>74.3</ele>
        <time>2024-10-28T14:35:43Z</time>
      </trkpt>
      <trkpt lat="43.50624" lon="6.60086">
        <ele>73.8</ele>
        <time>2024-10-28T14:35:51Z</time>
      </trkpt>
      <trkpt lat="43.50631" lon="6.60075">
        <ele>73.2</ele>
        <time>2024-10-28T14:36:00Z</time>
      </trkpt>
      <trkpt lat="43.50636" lon="6.60065">
        <ele>72.7</ele>
        <time>2024-10-28T14:36:08Z</time>
      </trkpt>
      <trkpt lat="43.50642" lon="6.60054">
        <ele>72.3</ele>
        <time>2024-10-28T14:36:16Z</time>
      </trkpt>
      <trkpt lat="43.50648" lon="6.60044">
        <ele>71.6</ele>
        <time>2024-10-28T14:36:24Z</time>
      </trkpt>
      <trkpt lat="43.50654" lon="6.60036">
        <ele>71</ele>
        <time>2024-10-28T14:36:33Z</time>
      </trkpt>
      <trkpt lat="43.5066" lon="6.60026">
        <ele>70.3</ele>
        <time>2024-10-28T14:36:43Z</time>
      </trkpt>
      <trkpt lat="43.50666" lon="6.60015">
        <ele>69.4</ele>
        <time>2024-10-28T14:36:52Z</time>
      </trkpt>
      <trkpt lat="43.50672" lon="6.60005">
        <ele>69.1</ele>
        <time>2024-10-28T14:37:00Z</time>
      </trkpt>
      <trkpt lat="43.50679" lon="6.59995">
        <ele>68.5</ele>
        <time>2024-10-28T14:37:08Z</time>
      </trkpt>
      <trkpt lat="43.50685" lon="6.59987">
        <ele>68</ele>
        <time>2024-10-28T14:37:16Z</time>
      </trkpt>
      <trkpt lat="43.50693" lon="6.59979">
        <ele>67.3</ele>
        <time>2024-10-28T14:37:25Z</time>
      </trkpt>
      <trkpt lat="43.50701" lon="6.59973">
        <ele>66.4</ele>
        <time>2024-10-28T14:37:35Z</time>
      </trkpt>
      <trkpt lat="43.5071" lon="6.59973">
        <ele>65.6</ele>
        <time>2024-10-28T14:37:56Z</time>
      </trkpt>
      <trkpt lat="43.5072" lon="6.59976">
        <ele>65.7</ele>
        <time>2024-10-28T14:38:05Z</time>
      </trkpt>
      <trkpt lat="43.5073" lon="6.59975">
        <ele>65.6</ele>
        <time>2024-10-28T14:38:13Z</time>
      </trkpt>
      <trkpt lat="43.5074" lon="6.59975">
        <ele>65.6</ele>
        <time>2024-10-28T14:38:22Z</time>
      </trkpt>
      <trkpt lat="43.50749" lon="6.59975">
        <ele>65.9</ele>
        <time>2024-10-28T14:38:32Z</time>
      </trkpt>
      <trkpt lat="43.50758" lon="6.59977">
        <ele>65.7</ele>
        <time>2024-10-28T14:39:02Z</time>
      </trkpt>
      <trkpt lat="43.50748" lon="6.59983">
        <ele>66.8</ele>
        <time>2024-10-28T14:41:07Z</time>
      </trkpt>
      <trkpt lat="43.50739" lon="6.59981">
        <ele>66.4</ele>
        <time>2024-10-28T14:41:11Z</time>
      </trkpt>
      <trkpt lat="43.50729" lon="6.5998">
        <ele>66</ele>
        <time>2024-10-28T14:41:16Z</time>
      </trkpt>
      <trkpt lat="43.50719" lon="6.59975">
        <ele>65.8</ele>
        <time>2024-10-28T14:41:24Z</time>
      </trkpt>
      <trkpt lat="43.50708" lon="6.59974">
        <ele>65.7</ele>
        <time>2024-10-28T14:41:30Z</time>
      </trkpt>
      <trkpt lat="43.50699" lon="6.59982">
        <ele>66.1</ele>
        <time>2024-10-28T14:41:36Z</time>
      </trkpt>
      <trkpt lat="43.50689" lon="6.59987">
        <ele>66.8</ele>
        <time>2024-10-28T14:41:41Z</time>
      </trkpt>
      <trkpt lat="43.50681" lon="6.59997">
        <ele>67.6</ele>
        <time>2024-10-28T14:41:45Z</time>
      </trkpt>
      <trkpt lat="43.50674" lon="6.60007">
        <ele>68.5</ele>
        <time>2024-10-28T14:41:49Z</time>
      </trkpt>
      <trkpt lat="43.50668" lon="6.60018">
        <ele>68.9</ele>
        <time>2024-10-28T14:41:53Z</time>
      </trkpt>
      <trkpt lat="43.50662" lon="6.60029">
        <ele>69.6</ele>
        <time>2024-10-28T14:41:57Z</time>
      </trkpt>
      <trkpt lat="43.50654" lon="6.60039">
        <ele>70.2</ele>
        <time>2024-10-28T14:42:01Z</time>
      </trkpt>
      <trkpt lat="43.50648" lon="6.6005">
        <ele>71.3</ele>
        <time>2024-10-28T14:42:05Z</time>
      </trkpt>
      <trkpt lat="43.50641" lon="6.60059">
        <ele>71.8</ele>
        <time>2024-10-28T14:42:10Z</time>
      </trkpt>
      <trkpt lat="43.50633" lon="6.6007">
        <ele>72.1</ele>
        <time>2024-10-28T14:42:15Z</time>
      </trkpt>
      <trkpt lat="43.50627" lon="6.6008">
        <ele>73.1</ele>
        <time>2024-10-28T14:42:19Z</time>
      </trkpt>
      <trkpt lat="43.5062" lon="6.60092">
        <ele>73.7</ele>
        <time>2024-10-28T14:42:23Z</time>
      </trkpt>
      <trkpt lat="43.50613" lon="6.60103">
        <ele>74.5</ele>
        <time>2024-10-28T14:42:28Z</time>
      </trkpt>
      <trkpt lat="43.50606" lon="6.60114">
        <ele>74.9</ele>
        <time>2024-10-28T14:42:32Z</time>
      </trkpt>
      <trkpt lat="43.50599" lon="6.60122">
        <ele>74.8</ele>
        <time>2024-10-28T14:42:35Z</time>
      </trkpt>
      <trkpt lat="43.50592" lon="6.6013">
        <ele>75.1</ele>
        <time>2024-10-28T14:42:38Z</time>
      </trkpt>
      <trkpt lat="43.50585" lon="6.60139">
        <ele>75.7</ele>
        <time>2024-10-28T14:42:41Z</time>
      </trkpt>
      <trkpt lat="43.50577" lon="6.60149">
        <ele>75.8</ele>
        <time>2024-10-28T14:42:45Z</time>
      </trkpt>
      <trkpt lat="43.50569" lon="6.6016">
        <ele>75.6</ele>
        <time>2024-10-28T14:42:49Z</time>
      </trkpt>
      <trkpt lat="43.50561" lon="6.60169">
        <ele>75.7</ele>
        <time>2024-10-28T14:42:53Z</time>
      </trkpt>
      <trkpt lat="43.50553" lon="6.60179">
        <ele>75.8</ele>
        <time>2024-10-28T14:42:57Z</time>
      </trkpt>
      <trkpt lat="43.50544" lon="6.60189">
        <ele>75.6</ele>
        <time>2024-10-28T14:43:01Z</time>
      </trkpt>
      <trkpt lat="43.50536" lon="6.60197">
        <ele>76</ele>
        <time>2024-10-28T14:43:04Z</time>
      </trkpt>
      <trkpt lat="43.50527" lon="6.60204">
        <ele>76.6</ele>
        <time>2024-10-28T14:43:08Z</time>
      </trkpt>
      <trkpt lat="43.50518" lon="6.60209">
        <ele>76.4</ele>
        <time>2024-10-28T14:43:13Z</time>
      </trkpt>
      <trkpt lat="43.50508" lon="6.60216">
        <ele>76.3</ele>
        <time>2024-10-28T14:43:17Z</time>
      </trkpt>
      <trkpt lat="43.50499" lon="6.60221">
        <ele>76.1</ele>
        <time>2024-10-28T14:43:22Z</time>
      </trkpt>
      <trkpt lat="43.50491" lon="6.60217">
        <ele>75.9</ele>
        <time>2024-10-28T14:45:16Z</time>
      </trkpt>
      <trkpt lat="43.50492" lon="6.60217">
        <ele>75.8</ele>
        <time>2024-10-28T14:45:35Z</time>
      </trkpt>
    </trkseg>
  </trk>
</gpx>